Wetterdaten: Donnerstag, 25.09.2014
Datum Zeit Temp. Aussen +5cm Feuchte Auss Luftdruck Regen Sonnenschein Regendauer Solar Windben
25.09.2014 00:00 10,8 C 9,4 C 96 % 1012,4 hPa 0,0 l/m 0 min 0 min 0 W/m 16,7 km/h (3 Bft)
25.09.2014 00:02 10,8 C 9,4 C 96 % 1012,4 hPa 0,0 l/m 0 min 0 min 0 W/m 12,6 km/h (3 Bft)
25.09.2014 00:05 10,8 C 9,4 C 96 % 1012,4 hPa 0,0 l/m 0 min 0 min 0 W/m 12,6 km/h (3 Bft)
25.09.2014 00:06 10,8 C 9,4 C 96 % 1012,4 hPa 0,0 l/m 0 min 0 min 0 W/m 12,6 km/h (3 Bft)
25.09.2014 00:08 10,8 C 9,4 C 96 % 1012,4 hPa 0,0 l/m 0 min 0 min 0 W/m 12,6 km/h (3 Bft)
25.09.2014 00:10 10,8 C 9,4 C 97 % 1012,4 hPa 0,0 l/m 0 min 0 min 0 W/m 16,7 km/h (3 Bft)
25.09.2014 00:12 10,7 C 9,4 C 97 % 1012,3 hPa 0,0 l/m 0 min 0 min 0 W/m 12,6 km/h (3 Bft)
25.09.2014 00:14 10,8 C 9,4 C 97 % 1012,4 hPa 0,0 l/m 0 min 0 min 0 W/m 8,4 km/h (2 Bft)
25.09.2014 00:16 10,8 C 9,4 C 97 % 1012,3 hPa 0,0 l/m 0 min 0 min 0 W/m 10,5 km/h (2 Bft)
25.09.2014 00:18 10,7 C 9,4 C 97 % 1012,3 hPa 0,0 l/m 0 min 0 min 0 W/m 8,4 km/h (2 Bft)
25.09.2014 00:20 10,7 C 9,4 C 97 % 1012,3 hPa 0,0 l/m 0 min 0 min 0 W/m 14,6 km/h (3 Bft)
25.09.2014 00:22 10,7 C 9,4 C 97 % 1012,3 hPa 0,0 l/m 0 min 0 min 0 W/m 12,6 km/h (3 Bft)
25.09.2014 00:24 10,7 C 9,4 C 97 % 1012,3 hPa 0,0 l/m 0 min 0 min 0 W/m 14,6 km/h (3 Bft)
25.09.2014 00:26 10,7 C 9,4 C 97 % 1012,3 hPa 0,0 l/m 0 min 0 min 0 W/m 10,5 km/h (2 Bft)
25.09.2014 00:28 10,7 C 9,4 C 97 % 1012,4 hPa 0,0 l/m 0 min 0 min 0 W/m 10,5 km/h (2 Bft)
25.09.2014 00:30 10,7 C 9,4 C 96 % 1012,4 hPa 0,0 l/m 0 min 0 min 0 W/m 10,5 km/h (2 Bft)
25.09.2014 00:32 10,7 C 9,4 C 96 % 1012,3 hPa 0,0 l/m 0 min 0 min 0 W/m 10,5 km/h (2 Bft)
25.09.2014 00:34 10,7 C 9,4 C 97 % 1012,4 hPa 0,0 l/m 0 min 0 min 0 W/m 10,5 km/h (2 Bft)
25.09.2014 00:36 10,7 C 9,4 C 97 % 1012,5 hPa 0,0 l/m 0 min 0 min 0 W/m 10,5 km/h (2 Bft)
25.09.2014 00:38 10,7 C 9,4 C 97 % 1012,5 hPa 0,0 l/m 0 min 0 min 0 W/m 8,4 km/h (2 Bft)
25.09.2014 00:40 10,7 C 9,4 C 97 % 1012,5 hPa 0,0 l/m 0 min 0 min 0 W/m 8,4 km/h (2 Bft)
25.09.2014 00:42 10,7 C 9,4 C 97 % 1012,6 hPa 0,0 l/m 0 min 0 min 0 W/m 8,4 km/h (2 Bft)
25.09.2014 00:44 10,6 C 9,4 C 97 % 1012,6 hPa 0,0 l/m 0 min 0 min 0 W/m 14,6 km/h (3 Bft)
25.09.2014 00:46 10,6 C 9,4 C 97 % 1012,6 hPa 0,0 l/m 0 min 0 min 0 W/m 10,5 km/h (2 Bft)
25.09.2014 00:48 10,6 C 9,4 C 97 % 1012,5 hPa 0,0 l/m 0 min 0 min 0 W/m 10,5 km/h (2 Bft)
25.09.2014 00:50 10,6 C 9,4 C 97 % 1012,6 hPa 0,0 l/m 0 min 0 min 0 W/m 8,4 km/h (2 Bft)
25.09.2014 00:52 10,6 C 9,4 C 97 % 1012,6 hPa 0,0 l/m 0 min 0 min 0 W/m 10,5 km/h (2 Bft)
25.09.2014 00:54 10,6 C 9,4 C 97 % 1012,6 hPa 0,0 l/m 0 min 0 min 0 W/m 10,5 km/h (2 Bft)
25.09.2014 00:56 10,6 C 9,4 C 97 % 1012,7 hPa 0,0 l/m 0 min 0 min 0 W/m 12,6 km/h (3 Bft)
25.09.2014 00:58 10,6 C 9,4 C 97 % 1012,7 hPa 0,0 l/m 0 min 0 min 0 W/m 8,4 km/h (2 Bft)
25.09.2014 01:00 10,6 C 9,4 C 97 % 1012,7 hPa 0,0 l/m 0 min 0 min 0 W/m 6,3 km/h (2 Bft)
25.09.2014 01:02 10,6 C 9,4 C 97 % 1012,7 hPa 0,0 l/m 0 min 0 min 0 W/m 8,4 km/h (2 Bft)
25.09.2014 01:04 10,6 C 9,4 C 97 % 1012,7 hPa 0,0 l/m 0 min 0 min 0 W/m 12,6 km/h (3 Bft)
25.09.2014 01:06 10,6 C 9,4 C 97 % 1012,7 hPa 0,0 l/m 0 min 0 min 0 W/m 8,4 km/h (2 Bft)
25.09.2014 01:08 10,6 C 9,4 C 97 % 1012,8 hPa 0,0 l/m 0 min 0 min 0 W/m 8,4 km/h (2 Bft)
25.09.2014 01:10 10,6 C 9,4 C 97 % 1012,8 hPa 0,0 l/m 0 min 0 min 0 W/m 8,4 km/h (2 Bft)
25.09.2014 01:12 10,6 C 9,4 C 97 % 1012,8 hPa 0,0 l/m 0 min 0 min 0 W/m 8,4 km/h (2 Bft)
25.09.2014 01:14 10,6 C 9,4 C 97 % 1012,8 hPa 0,0 l/m 0 min 0 min 0 W/m 12,6 km/h (3 Bft)
25.09.2014 01:16 10,6 C 9,4 C 97 % 1012,8 hPa 0,0 l/m 0 min 0 min 0 W/m 8,4 km/h (2 Bft)
25.09.2014 01:18 10,6 C 9,4 C 97 % 1013,0 hPa 0,0 l/m 0 min 0 min 0 W/m 14,6 km/h (3 Bft)
25.09.2014 01:20 10,6 C 9,4 C 97 % 1013,1 hPa 0,0 l/m 0 min 0 min 0 W/m 10,5 km/h (2 Bft)
25.09.2014 01:22 10,6 C 9,4 C 97 % 1013,0 hPa 0,0 l/m 0 min 0 min 0 W/m 8,4 km/h (2 Bft)
25.09.2014 01:24 10,6 C 9,4 C 97 % 1013,1 hPa 0,0 l/m 0 min 0 min 0 W/m 12,6 km/h (3 Bft)
25.09.2014 01:26 10,6 C 9,4 C 97 % 1013,2 hPa 0,0 l/m 0 min 0 min 0 W/m 8,4 km/h (2 Bft)
25.09.2014 01:28 10,6 C 9,4 C 97 % 1013,2 hPa 0,0 l/m 0 min 0 min 0 W/m 16,7 km/h (3 Bft)
25.09.2014 01:30 10,7 C 9,4 C 97 % 1013,2 hPa 0,0 l/m 0 min 0 min 0 W/m 12,6 km/h (3 Bft)
25.09.2014 01:32 10,7 C 10,0 C 97 % 1013,2 hPa 0,0 l/m 0 min 0 min 0 W/m 12,6 km/h (3 Bft)
25.09.2014 01:34 10,7 C 10,0 C 97 % 1013,2 hPa 0,0 l/m 0 min 0 min 0 W/m 14,6 km/h (3 Bft)
25.09.2014 01:36 10,7 C 10,0 C 97 % 1013,2 hPa 0,0 l/m 0 min 0 min 0 W/m 14,6 km/h (3 Bft)
25.09.2014 01:38 10,8 C 10,0 C 97 % 1013,2 hPa 0,0 l/m 0 min 0 min 0 W/m 12,6 km/h (3 Bft)
25.09.2014 01:40 10,8 C 10,0 C 97 % 1013,3 hPa 0,0 l/m 0 min 0 min 0 W/m 10,5 km/h (2 Bft)
25.09.2014 01:42 10,8 C 10,0 C 97 % 1013,3 hPa 0,0 l/m 0 min 0 min 0 W/m 12,6 km/h (3 Bft)
25.09.2014 01:44 10,8 C 10,0 C 97 % 1013,3 hPa 0,0 l/m 0 min 0 min 0 W/m 10,5 km/h (2 Bft)
25.09.2014 01:46 10,8 C 10,0 C 97 % 1013,2 hPa 0,0 l/m 0 min 0 min 0 W/m 14,6 km/h (3 Bft)
25.09.2014 01:48 10,8 C 10,0 C 97 % 1013,3 hPa 0,0 l/m 0 min 0 min 0 W/m 10,5 km/h (2 Bft)
25.09.2014 01:50 10,8 C 10,0 C 97 % 1013,2 hPa 0,0 l/m 0 min 0 min 0 W/m 14,6 km/h (3 Bft)
25.09.2014 01:52 10,9 C 10,0 C 97 % 1013,3 hPa 0,0 l/m 0 min 0 min 0 W/m 12,6 km/h (3 Bft)
25.09.2014 01:54 10,9 C 10,0 C 97 % 1013,4 hPa 0,0 l/m 0 min 0 min 0 W/m 12,6 km/h (3 Bft)
25.09.2014 01:56 10,9 C 10,0 C 97 % 1013,4 hPa 0,0 l/m 0 min 0 min 0 W/m 12,6 km/h (3 Bft)
25.09.2014 01:58 10,9 C 10,0 C 97 % 1013,4 hPa 0,0 l/m 0 min 0 min 0 W/m 14,6 km/h (3 Bft)
25.09.2014 02:00 10,9 C 10,0 C 97 % 1013,4 hPa 0,0 l/m 0 min 0 min 0 W/m 6,3 km/h (2 Bft)
25.09.2014 02:02 10,9 C 10,0 C 97 % 1013,4 hPa 0,0 l/m 0 min 0 min 0 W/m 10,5 km/h (2 Bft)
25.09.2014 02:04 10,9 C 9,4 C 97 % 1013,4 hPa 0,0 l/m 0 min 0 min 0 W/m 8,4 km/h (2 Bft)
25.09.2014 02:06 10,9 C 9,4 C 97 % 1013,5 hPa 0,0 l/m 0 min 0 min 0 W/m 6,3 km/h (2 Bft)
25.09.2014 02:08 10,9 C 9,4 C 97 % 1013,5 hPa 0,0 l/m 0 min 0 min 0 W/m 10,5 km/h (2 Bft)
25.09.2014 02:10 10,9 C 9,4 C 97 % 1013,5 hPa 0,0 l/m 0 min 0 min 0 W/m 12,6 km/h (3 Bft)
25.09.2014 02:12 10,9 C 9,4 C 97 % 1013,5 hPa 0,0 l/m 0 min 0 min 0 W/m 8,4 km/h (2 Bft)
25.09.2014 02:14 10,9 C 9,4 C 97 % 1013,5 hPa 0,0 l/m 0 min 0 min 0 W/m 10,5 km/h (2 Bft)
25.09.2014 02:16 10,8 C 9,4 C 97 % 1013,6 hPa 0,0 l/m 0 min 0 min 0 W/m 8,4 km/h (2 Bft)
25.09.2014 02:18 10,8 C 9,4 C 97 % 1013,6 hPa 0,0 l/m 0 min 0 min 0 W/m 8,4 km/h (2 Bft)
25.09.2014 02:20 10,8 C 9,4 C 97 % 1013,6 hPa 0,0 l/m 0 min 0 min 0 W/m 10,5 km/h (2 Bft)
25.09.2014 02:22 10,8 C 9,4 C 97 % 1013,6 hPa 0,0 l/m 0 min 0 min 0 W/m 4,2 km/h (1 Bft)
25.09.2014 02:24 10,8 C 9,4 C 97 % 1013,6 hPa 0,0 l/m 0 min 0 min 0 W/m 8,4 km/h (2 Bft)
25.09.2014 02:26 10,7 C 9,4 C 97 % 1013,7 hPa 0,0 l/m 0 min 0 min 0 W/m 12,6 km/h (3 Bft)
25.09.2014 02:28 10,7 C 9,4 C 97 % 1013,7 hPa 0,0 l/m 0 min 0 min 0 W/m 12,6 km/h (3 Bft)
25.09.2014 02:30 10,7 C 9,4 C 97 % 1013,8 hPa 0,0 l/m 0 min 0 min 0 W/m 10,5 km/h (2 Bft)
25.09.2014 02:32 10,7 C 9,4 C 97 % 1013,9 hPa 0,0 l/m 0 min 0 min 0 W/m 6,3 km/h (2 Bft)
25.09.2014 02:34 10,7 C 9,4 C 97 % 1013,9 hPa 0,0 l/m 0 min 0 min 0 W/m 8,4 km/h (2 Bft)
25.09.2014 02:36 10,7 C 9,4 C 97 % 1013,9 hPa 0,0 l/m 0 min 0 min 0 W/m 8,4 km/h (2 Bft)
25.09.2014 02:38 10,6 C 9,4 C 97 % 1013,9 hPa 0,0 l/m 0 min 0 min 0 W/m 8,4 km/h (2 Bft)
25.09.2014 02:40 10,6 C 8,9 C 97 % 1013,9 hPa 0,0 l/m 0 min 0 min 0 W/m 10,5 km/h (2 Bft)
25.09.2014 02:42 10,6 C 9,4 C 97 % 1013,9 hPa 0,0 l/m 0 min 0 min 0 W/m 8,4 km/h (2 Bft)
25.09.2014 02:44 10,6 C 9,4 C 97 % 1014,0 hPa 0,0 l/m 0 min 0 min 0 W/m 6,3 km/h (2 Bft)
25.09.2014 02:46 10,6 C 8,9 C 97 % 1014,0 hPa 0,0 l/m 0 min 0 min 0 W/m 6,3 km/h (2 Bft)
25.09.2014 02:48 10,5 C 8,9 C 97 % 1014,0 hPa 0,0 l/m 0 min 0 min 0 W/m 8,4 km/h (2 Bft)
25.09.2014 02:50 10,5 C 8,9 C 97 % 1014,1 hPa 0,0 l/m 0 min 0 min 0 W/m 6,3 km/h (2 Bft)
25.09.2014 02:52 10,4 C 8,9 C 97 % 1014,1 hPa 0,0 l/m 0 min 0 min 0 W/m 8,4 km/h (2 Bft)
25.09.2014 02:54 10,4 C 8,9 C 97 % 1014,1 hPa 0,0 l/m 0 min 0 min 0 W/m 12,6 km/h (3 Bft)
25.09.2014 02:56 10,4 C 8,9 C 97 % 1014,2 hPa 0,0 l/m 0 min 0 min 0 W/m 6,3 km/h (2 Bft)
25.09.2014 02:58 10,4 C 8,9 C 97 % 1014,2 hPa 0,0 l/m 0 min 0 min 0 W/m 8,4 km/h (2 Bft)
25.09.2014 03:00 10,4 C 8,9 C 97 % 1014,2 hPa 0,0 l/m 0 min 0 min 0 W/m 8,4 km/h (2 Bft)
25.09.2014 03:02 10,4 C 8,9 C 97 % 1014,3 hPa 0,0 l/m 0 min 0 min 0 W/m 12,6 km/h (3 Bft)
25.09.2014 03:04 10,3 C 8,9 C 97 % 1014,3 hPa 0,0 l/m 0 min 0 min 0 W/m 6,3 km/h (2 Bft)
25.09.2014 03:06 10,3 C 8,9 C 97 % 1014,4 hPa 0,0 l/m 0 min 0 min 0 W/m 12,6 km/h (3 Bft)
25.09.2014 03:08 10,3 C 8,9 C 97 % 1014,4 hPa 0,0 l/m 0 min 0 min 0 W/m 8,4 km/h (2 Bft)
25.09.2014 03:10 10,3 C 8,9 C 97 % 1014,5 hPa 0,0 l/m 0 min 0 min 0 W/m 6,3 km/h (2 Bft)
25.09.2014 03:12 10,3 C 8,9 C 97 % 1014,5 hPa 0,0 l/m 0 min 0 min 0 W/m 8,4 km/h (2 Bft)
25.09.2014 03:14 10,3 C 8,9 C 97 % 1014,6 hPa 0,0 l/m 0 min 0 min 0 W/m 8,4 km/h (2 Bft)
25.09.2014 03:16 10,2 C 8,9 C 97 % 1014,6 hPa 0,0 l/m 0 min 0 min 0 W/m 10,5 km/h (2 Bft)
25.09.2014 03:18 10,2 C 8,9 C 97 % 1014,6 hPa 0,0 l/m 0 min 0 min 0 W/m 8,4 km/h (2 Bft)
25.09.2014 03:20 10,2 C 8,9 C 97 % 1014,6 hPa 0,0 l/m 0 min 0 min 0 W/m 8,4 km/h (2 Bft)
25.09.2014 03:22 10,2 C 8,9 C 97 % 1014,6 hPa 0,0 l/m 0 min 0 min 0 W/m 10,5 km/h (2 Bft)
25.09.2014 03:24 10,2 C 8,9 C 97 % 1014,6 hPa 0,0 l/m 0 min 0 min 0 W/m 10,5 km/h (2 Bft)
25.09.2014 03:26 10,2 C 8,9 C 97 % 1014,6 hPa 0,0 l/m 0 min 0 min 0 W/m 12,6 km/h (3 Bft)
25.09.2014 03:28 10,2 C 8,9 C 98 % 1014,5 hPa 0,0 l/m 0 min 0 min 0 W/m 12,6 km/h (3 Bft)
25.09.2014 03:30 10,2 C 8,9 C 98 % 1014,6 hPa 0,0 l/m 0 min 0 min 0 W/m 12,6 km/h (3 Bft)
25.09.2014 03:32 10,2 C 8,9 C 98 % 1014,5 hPa 0,0 l/m 0 min 0 min 0 W/m 12,6 km/h (3 Bft)
25.09.2014 03:34 10,2 C 8,9 C 98 % 1014,5 hPa 0,0 l/m 0 min 0 min 0 W/m 14,6 km/h (3 Bft)
25.09.2014 03:36 10,2 C 8,9 C 98 % 1014,5 hPa 0,0 l/m 0 min 0 min 0 W/m 14,6 km/h (3 Bft)
25.09.2014 03:38 10,2 C 8,9 C 98 % 1014,6 hPa 0,0 l/m 0 min 0 min 0 W/m 8,4 km/h (2 Bft)
25.09.2014 03:40 10,2 C 8,9 C 98 % 1014,7 hPa 0,0 l/m 0 min 0 min 0 W/m 8,4 km/h (2 Bft)
25.09.2014 03:42 10,2 C 8,9 C 98 % 1014,6 hPa 0,0 l/m 0 min 0 min 0 W/m 12,6 km/h (3 Bft)
25.09.2014 03:44 10,2 C 8,9 C 98 % 1014,7 hPa 0,0 l/m 0 min 0 min 0 W/m 8,4 km/h (2 Bft)
25.09.2014 03:46 10,2 C 8,9 C 98 % 1014,7 hPa 0,0 l/m 0 min 0 min 0 W/m 10,5 km/h (2 Bft)
25.09.2014 03:48 10,2 C 8,9 C 98 % 1014,7 hPa 0,0 l/m 0 min 0 min 0 W/m 10,5 km/h (2 Bft)
25.09.2014 03:50 10,2 C 8,9 C 98 % 1014,7 hPa 0,0 l/m 0 min 0 min 0 W/m 10,5 km/h (2 Bft)
25.09.2014 03:52 10,2 C 8,9 C 98 % 1014,6 hPa 0,0 l/m 0 min 0 min 0 W/m 10,5 km/h (2 Bft)
25.09.2014 03:54 10,2 C 8,9 C 98 % 1014,7 hPa 0,0 l/m 0 min 0 min 0 W/m 8,4 km/h (2 Bft)
25.09.2014 03:56 10,2 C 8,9 C 97 % 1014,8 hPa 0,0 l/m 0 min 0 min 0 W/m 10,5 km/h (2 Bft)
25.09.2014 03:58 10,1 C 8,9 C 97 % 1014,8 hPa 0,0 l/m 0 min 0 min 0 W/m 12,6 km/h (3 Bft)
25.09.2014 04:00 10,1 C 8,9 C 97 % 1014,8 hPa 0,0 l/m 0 min 0 min 0 W/m 10,5 km/h (2 Bft)
25.09.2014 04:02 10,1 C 8,9 C 97 % 1014,8 hPa 0,0 l/m 0 min 0 min 0 W/m 6,3 km/h (2 Bft)
25.09.2014 04:07 10,1 C 8,9 C 98 % 1014,7 hPa 0,0 l/m 0 min 0 min 0 W/m 8,4 km/h (2 Bft)
25.09.2014 04:08 10,1 C 8,9 C 98 % 1014,7 hPa 0,0 l/m 0 min 0 min 0 W/m 8,4 km/h (2 Bft)
25.09.2014 04:10 10,1 C 8,9 C 98 % 1014,7 hPa 0,0 l/m 0 min 0 min 0 W/m 8,4 km/h (2 Bft)
25.09.2014 04:12 10,1 C 8,9 C 98 % 1014,6 hPa 0,0 l/m 0 min 0 min 0 W/m 10,5 km/h (2 Bft)
25.09.2014 04:14 10,1 C 8,9 C 98 % 1014,6 hPa 0,0 l/m 0 min 0 min 0 W/m 8,4 km/h (2 Bft)
25.09.2014 04:16 10,1 C 8,9 C 98 % 1014,5 hPa 0,0 l/m 0 min 0 min 0 W/m 6,3 km/h (2 Bft)
25.09.2014 04:18 10,1 C 8,9 C 98 % 1014,7 hPa 0,0 l/m 0 min 0 min 0 W/m 14,6 km/h (3 Bft)
25.09.2014 04:20 10,1 C 8,9 C 98 % 1014,7 hPa 0,0 l/m 0 min 0 min 0 W/m 10,5 km/h (2 Bft)
25.09.2014 04:22 10,1 C 8,9 C 98 % 1014,8 hPa 0,0 l/m 0 min 0 min 0 W/m 10,5 km/h (2 Bft)
25.09.2014 04:24 10,1 C 8,9 C 98 % 1014,9 hPa 0,0 l/m 0 min 0 min 0 W/m 6,3 km/h (2 Bft)
25.09.2014 04:26 10,1 C 8,9 C 98 % 1015,0 hPa 0,0 l/m 0 min 0 min 0 W/m 10,5 km/h (2 Bft)
25.09.2014 04:28 10,0 C 8,9 C 98 % 1015,0 hPa 0,0 l/m 0 min 0 min 0 W/m 6,3 km/h (2 Bft)
25.09.2014 04:30 10,0 C 8,9 C 98 % 1015,0 hPa 0,0 l/m 0 min 0 min 0 W/m 8,4 km/h (2 Bft)
25.09.2014 04:32 10,0 C 8,9 C 98 % 1015,0 hPa 0,0 l/m 0 min 0 min 0 W/m 10,5 km/h (2 Bft)
25.09.2014 04:34 10,0 C 8,9 C 98 % 1015,0 hPa 0,0 l/m 0 min 0 min 0 W/m 8,4 km/h (2 Bft)
25.09.2014 04:36 10,0 C 8,9 C 98 % 1015,0 hPa 0,0 l/m 0 min 0 min 0 W/m 10,5 km/h (2 Bft)
25.09.2014 04:38 10,0 C 8,9 C 98 % 1015,1 hPa 0,0 l/m 0 min 0 min 0 W/m 12,6 km/h (3 Bft)
25.09.2014 04:40 10,0 C 8,9 C 98 % 1015,1 hPa 0,0 l/m 0 min 0 min 0 W/m 10,5 km/h (2 Bft)
25.09.2014 04:42 9,9 C 8,9 C 98 % 1015,1 hPa 0,0 l/m 0 min 0 min 0 W/m 8,4 km/h (2 Bft)
25.09.2014 04:44 9,9 C 8,9 C 98 % 1015,1 hPa 0,0 l/m 0 min 0 min 0 W/m 6,3 km/h (2 Bft)
25.09.2014 04:46 9,9 C 8,9 C 98 % 1015,2 hPa 0,0 l/m 0 min 0 min 0 W/m 8,4 km/h (2 Bft)
25.09.2014 04:48 9,9 C 8,3 C 98 % 1015,2 hPa 0,0 l/m 0 min 0 min 0 W/m 4,2 km/h (1 Bft)
25.09.2014 04:50 9,9 C 8,9 C 98 % 1015,2 hPa 0,0 l/m 0 min 0 min 0 W/m 6,3 km/h (2 Bft)
25.09.2014 04:52 9,9 C 8,3 C 98 % 1015,2 hPa 0,0 l/m 0 min 0 min 0 W/m 6,3 km/h (2 Bft)
25.09.2014 04:54 9,9 C 8,3 C 98 % 1015,2 hPa 0,0 l/m 0 min 0 min 0 W/m 6,3 km/h (2 Bft)
25.09.2014 04:56 9,9 C 8,3 C 98 % 1015,2 hPa 0,0 l/m 0 min 0 min 0 W/m 6,3 km/h (2 Bft)
25.09.2014 04:58 9,9 C 8,3 C 98 % 1015,3 hPa 0,0 l/m 0 min 0 min 0 W/m 6,3 km/h (2 Bft)
25.09.2014 05:00 9,8 C 8,3 C 98 % 1015,3 hPa 0,0 l/m 0 min 0 min 0 W/m 6,3 km/h (2 Bft)
25.09.2014 05:02 9,8 C 8,3 C 98 % 1015,4 hPa 0,0 l/m 0 min 0 min 0 W/m 6,3 km/h (2 Bft)
25.09.2014 05:04 9,8 C 8,3 C 98 % 1015,4 hPa 0,0 l/m 0 min 0 min 0 W/m 10,5 km/h (2 Bft)
25.09.2014 05:06 9,8 C 8,3 C 98 % 1015,5 hPa 0,0 l/m 0 min 0 min 0 W/m 6,3 km/h (2 Bft)
25.09.2014 05:08 9,8 C 8,3 C 98 % 1015,5 hPa 0,0 l/m 0 min 0 min 0 W/m 10,5 km/h (2 Bft)
25.09.2014 05:10 9,8 C 8,3 C 98 % 1015,5 hPa 0,0 l/m 0 min 0 min 0 W/m 6,3 km/h (2 Bft)
25.09.2014 05:12 9,8 C 8,3 C 98 % 1015,5 hPa 0,0 l/m 0 min 0 min 0 W/m 4,2 km/h (1 Bft)
25.09.2014 05:14 9,7 C 8,3 C 98 % 1015,6 hPa 0,0 l/m 0 min 0 min 0 W/m 6,3 km/h (2 Bft)
25.09.2014 05:16 9,7 C 8,3 C 98 % 1015,6 hPa 0,0 l/m 0 min 0 min 0 W/m 8,4 km/h (2 Bft)
25.09.2014 05:18 9,7 C 8,3 C 98 % 1015,7 hPa 0,0 l/m 0 min 0 min 0 W/m 6,3 km/h (2 Bft)
25.09.2014 05:20 9,7 C 8,3 C 98 % 1015,6 hPa 0,0 l/m 0 min 0 min 0 W/m 6,3 km/h (2 Bft)
25.09.2014 05:22 9,7 C 8,3 C 98 % 1015,6 hPa 0,0 l/m 0 min 0 min 0 W/m 6,3 km/h (2 Bft)
25.09.2014 05:24 9,7 C 8,3 C 98 % 1015,6 hPa 0,0 l/m 0 min 0 min 0 W/m 6,3 km/h (2 Bft)
25.09.2014 05:26 9,7 C 8,3 C 98 % 1015,7 hPa 0,0 l/m 0 min 0 min 0 W/m 6,3 km/h (2 Bft)
25.09.2014 05:28 9,6 C 8,3 C 98 % 1015,7 hPa 0,0 l/m 0 min 0 min 0 W/m 6,3 km/h (2 Bft)
25.09.2014 05:30 9,6 C 8,3 C 98 % 1015,6 hPa 0,0 l/m 0 min 0 min 0 W/m 10,5 km/h (2 Bft)
25.09.2014 05:32 9,6 C 8,9 C 98 % 1015,6 hPa 0,0 l/m 0 min 0 min 0 W/m 8,4 km/h (2 Bft)
25.09.2014 05:34 9,6 C 8,9 C 98 % 1015,7 hPa 0,0 l/m 0 min 0 min 0 W/m 6,3 km/h (2 Bft)
25.09.2014 05:36 9,6 C 8,9 C 98 % 1015,6 hPa 0,0 l/m 0 min 0 min 0 W/m 10,5 km/h (2 Bft)
25.09.2014 05:38 9,7 C 8,9 C 98 % 1015,7 hPa 0,0 l/m 0 min 0 min 0 W/m 10,5 km/h (2 Bft)
25.09.2014 05:40 9,7 C 8,9 C 98 % 1015,6 hPa 0,0 l/m 0 min 0 min 0 W/m 4,2 km/h (1 Bft)
25.09.2014 05:42 9,7 C 8,3 C 98 % 1015,7 hPa 0,0 l/m 0 min 0 min 0 W/m 6,3 km/h (2 Bft)
25.09.2014 05:44 9,7 C 8,3 C 98 % 1015,7 hPa 0,0 l/m 0 min 0 min 0 W/m 6,3 km/h (2 Bft)
25.09.2014 05:46 9,7 C 8,3 C 98 % 1015,6 hPa 0,0 l/m 0 min 0 min 0 W/m 8,4 km/h (2 Bft)
25.09.2014 05:48 9,7 C 8,3 C 98 % 1015,6 hPa 0,0 l/m 0 min 0 min 0 W/m 6,3 km/h (2 Bft)
25.09.2014 05:50 9,7 C 8,3 C 98 % 1015,6 hPa 0,0 l/m 0 min 0 min 0 W/m 12,6 km/h (3 Bft)
25.09.2014 05:52 9,7 C 8,3 C 98 % 1015,6 hPa 0,0 l/m 0 min 0 min 0 W/m 8,4 km/h (2 Bft)
25.09.2014 05:54 9,7 C 8,3 C 98 % 1015,6 hPa 0,0 l/m 0 min 0 min 0 W/m 8,4 km/h (2 Bft)
25.09.2014 05:56 9,7 C 8,3 C 98 % 1015,6 hPa 0,0 l/m 0 min 0 min 0 W/m 8,4 km/h (2 Bft)
25.09.2014 05:58 9,7 C 8,9 C 98 % 1015,6 hPa 0,0 l/m 0 min 0 min 0 W/m 10,5 km/h (2 Bft)
25.09.2014 06:00 9,7 C 8,9 C 98 % 1015,6 hPa 0,0 l/m 0 min 0 min 0 W/m 8,4 km/h (2 Bft)
25.09.2014 06:02 9,7 C 8,9 C 98 % 1015,6 hPa 0,0 l/m 0 min 0 min 0 W/m 8,4 km/h (2 Bft)
25.09.2014 06:05 9,7 C 8,9 C 98 % 1015,7 hPa 0,0 l/m 0 min 0 min 0 W/m 10,5 km/h (2 Bft)
25.09.2014 06:06 9,7 C 8,9 C 98 % 1015,7 hPa 0,0 l/m 0 min 0 min 0 W/m 6,3 km/h (2 Bft)
25.09.2014 06:08 9,7 C 8,3 C 98 % 1015,7 hPa 0,0 l/m 0 min 0 min 0 W/m 12,6 km/h (3 Bft)
25.09.2014 06:10 9,7 C 8,3 C 98 % 1015,7 hPa 0,0 l/m 0 min 0 min 0 W/m 8,4 km/h (2 Bft)
25.09.2014 06:12 9,7 C 8,3 C 98 % 1015,8 hPa 0,0 l/m 0 min 0 min 0 W/m 10,5 km/h (2 Bft)
25.09.2014 06:14 9,7 C 8,3 C 98 % 1015,8 hPa 0,0 l/m 0 min 0 min 0 W/m 10,5 km/h (2 Bft)
25.09.2014 06:16 9,7 C 8,9 C 98 % 1015,8 hPa 0,0 l/m 0 min 0 min 0 W/m 6,3 km/h (2 Bft)
25.09.2014 06:18 9,7 C 8,3 C 98 % 1015,8 hPa 0,0 l/m 0 min 0 min 0 W/m 8,4 km/h (2 Bft)
25.09.2014 06:20 9,7 C 8,3 C 98 % 1015,8 hPa 0,0 l/m 0 min 0 min 0 W/m 6,3 km/h (2 Bft)
25.09.2014 06:22 9,7 C 8,3 C 98 % 1015,8 hPa 0,0 l/m 0 min 0 min 0 W/m 8,4 km/h (2 Bft)
25.09.2014 06:24 9,6 C 8,3 C 98 % 1015,9 hPa 0,0 l/m 0 min 0 min 0 W/m 10,5 km/h (2 Bft)
25.09.2014 06:26 9,6 C 8,9 C 98 % 1016,0 hPa 0,0 l/m 0 min 0 min 0 W/m 6,3 km/h (2 Bft)
25.09.2014 06:28 9,6 C 8,9 C 98 % 1016,0 hPa 0,0 l/m 0 min 0 min 0 W/m 6,3 km/h (2 Bft)
25.09.2014 06:30 9,7 C 8,9 C 98 % 1016,0 hPa 0,0 l/m 0 min 0 min 0 W/m 10,5 km/h (2 Bft)
25.09.2014 06:32 9,7 C 8,9 C 98 % 1015,9 hPa 0,0 l/m 0 min 0 min 0 W/m 6,3 km/h (2 Bft)
25.09.2014 06:34 9,7 C 8,9 C 98 % 1016,0 hPa 0,0 l/m 0 min 0 min 0 W/m 6,3 km/h (2 Bft)
25.09.2014 06:36 9,7 C 8,9 C 98 % 1015,9 hPa 0,0 l/m 0 min 0 min 0 W/m 8,4 km/h (2 Bft)
25.09.2014 06:38 9,7 C 8,9 C 98 % 1015,9 hPa 0,0 l/m 0 min 0 min 0 W/m 10,5 km/h (2 Bft)
25.09.2014 06:40 9,7 C 9,4 C 98 % 1015,9 hPa 0,0 l/m 0 min 0 min 0 W/m 12,6 km/h (3 Bft)
25.09.2014 06:42 9,7 C 9,4 C 98 % 1015,9 hPa 0,0 l/m 0 min 0 min 0 W/m 12,6 km/h (3 Bft)
25.09.2014 06:44 9,8 C 9,4 C 98 % 1015,9 hPa 0,0 l/m 0 min 0 min 0 W/m 10,5 km/h (2 Bft)
25.09.2014 06:46 9,8 C 9,4 C 98 % 1016,0 hPa 0,0 l/m 0 min 0 min 0 W/m 6,3 km/h (2 Bft)
25.09.2014 06:48 9,8 C 9,4 C 98 % 1016,0 hPa 0,0 l/m 0 min 0 min 0 W/m 10,5 km/h (2 Bft)
25.09.2014 06:50 9,8 C 9,4 C 98 % 1016,1 hPa 0,0 l/m 0 min 0 min 0 W/m 10,5 km/h (2 Bft)
25.09.2014 06:52 9,9 C 9,4 C 98 % 1016,0 hPa 0,0 l/m 0 min 0 min 0 W/m 10,5 km/h (2 Bft)
25.09.2014 06:54 9,9 C 9,4 C 98 % 1016,0 hPa 0,0 l/m 0 min 0 min 0 W/m 12,6 km/h (3 Bft)
25.09.2014 06:56 9,9 C 9,4 C 98 % 1016,0 hPa 0,0 l/m 0 min 0 min 0 W/m 6,3 km/h (2 Bft)
25.09.2014 06:58 10,0 C 9,4 C 98 % 1015,9 hPa 0,0 l/m 0 min 0 min 0 W/m 10,5 km/h (2 Bft)
25.09.2014 07:00 10,0 C 9,4 C 98 % 1016,0 hPa 0,0 l/m 0 min 0 min 0 W/m 8,4 km/h (2 Bft)
25.09.2014 07:02 10,0 C 9,4 C 98 % 1016,1 hPa 0,0 l/m 0 min 0 min 0 W/m 6,3 km/h (2 Bft)
25.09.2014 07:04 10,1 C 9,4 C 98 % 1016,1 hPa 0,0 l/m 0 min 0 min 0 W/m 12,6 km/h (3 Bft)
25.09.2014 07:06 10,1 C 9,4 C 98 % 1016,2 hPa 0,0 l/m 0 min 0 min 0 W/m 10,5 km/h (2 Bft)
25.09.2014 07:08 10,1 C 9,4 C 98 % 1016,3 hPa 0,0 l/m 0 min 0 min 0 W/m 8,4 km/h (2 Bft)
25.09.2014 07:10 10,1 C 9,4 C 98 % 1016,3 hPa 0,0 l/m 0 min 0 min 0 W/m 10,5 km/h (2 Bft)
25.09.2014 07:12 10,2 C 9,4 C 98 % 1016,3 hPa 0,0 l/m 0 min 0 min 0 W/m 8,4 km/h (2 Bft)
25.09.2014 07:14 10,2 C 9,4 C 98 % 1016,3 hPa 0,0 l/m 0 min 0 min 0 W/m 10,5 km/h (2 Bft)
25.09.2014 07:16 10,2 C 9,4 C 98 % 1016,4 hPa 0,0 l/m 0 min 0 min 0 W/m 12,6 km/h (3 Bft)
25.09.2014 07:18 10,2 C 9,4 C 98 % 1016,6 hPa 0,0 l/m 0 min 0 min 0 W/m 14,6 km/h (3 Bft)
25.09.2014 07:20 10,2 C 9,4 C 98 % 1016,6 hPa 0,0 l/m 0 min 0 min 0 W/m 12,6 km/h (3 Bft)
25.09.2014 07:22 10,2 C 9,4 C 98 % 1016,7 hPa 0,0 l/m 0 min 0 min 0 W/m 8,4 km/h (2 Bft)
25.09.2014 07:24 10,2 C 9,4 C 98 % 1016,7 hPa 0,0 l/m 0 min 0 min 0 W/m 4,2 km/h (1 Bft)
25.09.2014 07:26 10,2 C 9,4 C 98 % 1016,7 hPa 0,0 l/m 0 min 0 min 0 W/m 8,4 km/h (2 Bft)
25.09.2014 07:28 10,2 C 9,4 C 98 % 1016,8 hPa 0,0 l/m 0 min 0 min 0 W/m 4,2 km/h (1 Bft)
25.09.2014 07:30 10,3 C 9,4 C 98 % 1016,8 hPa 0,0 l/m 0 min 0 min 0 W/m 8,4 km/h (2 Bft)
25.09.2014 07:32 10,3 C 9,4 C 98 % 1016,8 hPa 0,0 l/m 0 min 0 min 3 W/m 8,4 km/h (2 Bft)
25.09.2014 07:34 10,3 C 9,4 C 98 % 1016,9 hPa 0,0 l/m 0 min 0 min 5 W/m 6,3 km/h (2 Bft)
25.09.2014 07:36 10,3 C 9,4 C 98 % 1016,9 hPa 0,0 l/m 0 min 0 min 6 W/m 4,2 km/h (1 Bft)
25.09.2014 07:38 10,3 C 9,4 C 98 % 1016,9 hPa 0,0 l/m 0 min 0 min 7 W/m 8,4 km/h (2 Bft)
25.09.2014 07:40 10,3 C 9,4 C 98 % 1017,0 hPa 0,0 l/m 0 min 0 min 8 W/m 8,4 km/h (2 Bft)
25.09.2014 07:42 10,3 C 9,4 C 98 % 1017,0 hPa 0,0 l/m 0 min 0 min 9 W/m 8,4 km/h (2 Bft)
25.09.2014 07:44 10,3 C 9,4 C 98 % 1017,1 hPa 0,0 l/m 0 min 0 min 9 W/m 8,4 km/h (2 Bft)
25.09.2014 07:46 10,4 C 9,4 C 98 % 1017,1 hPa 0,0 l/m 0 min 0 min 8 W/m 6,3 km/h (2 Bft)
25.09.2014 07:48 10,4 C 9,4 C 98 % 1017,1 hPa 0,0 l/m 0 min 0 min 7 W/m 8,4 km/h (2 Bft)
25.09.2014 07:50 10,4 C 10,0 C 98 % 1017,1 hPa 0,0 l/m 0 min 0 min 9 W/m 8,4 km/h (2 Bft)
25.09.2014 07:52 10,4 C 10,0 C 98 % 1017,1 hPa 0,0 l/m 0 min 0 min 11 W/m 8,4 km/h (2 Bft)
25.09.2014 07:54 10,4 C 10,0 C 98 % 1017,1 hPa 0,0 l/m 0 min 0 min 11 W/m 8,4 km/h (2 Bft)
25.09.2014 07:56 10,5 C 10,0 C 98 % 1017,2 hPa 0,0 l/m 0 min 0 min 12 W/m 8,4 km/h (2 Bft)
25.09.2014 07:58 10,5 C 10,0 C 98 % 1017,2 hPa 0,0 l/m 0 min 0 min 12 W/m 6,3 km/h (2 Bft)
25.09.2014 08:00 10,5 C 10,0 C 98 % 1017,2 hPa 0,0 l/m 0 min 0 min 14 W/m 6,3 km/h (2 Bft)
25.09.2014 08:02 10,5 C 10,0 C 98 % 1017,2 hPa 0,0 l/m 0 min 0 min 16 W/m 8,4 km/h (2 Bft)
25.09.2014 08:04 10,6 C 10,0 C 98 % 1017,1 hPa 0,0 l/m 0 min 0 min 16 W/m 6,3 km/h (2 Bft)
25.09.2014 08:06 10,6 C 10,0 C 98 % 1017,2 hPa 0,0 l/m 0 min 0 min 17 W/m 8,4 km/h (2 Bft)
25.09.2014 08:08 10,6 C 10,0 C 98 % 1017,2 hPa 0,0 l/m 0 min 0 min 19 W/m 6,3 km/h (2 Bft)
25.09.2014 08:10 10,6 C 10,0 C 98 % 1017,2 hPa 0,0 l/m 0 min 0 min 19 W/m 10,5 km/h (2 Bft)
25.09.2014 08:12 10,6 C 10,0 C 98 % 1017,3 hPa 0,0 l/m 0 min 0 min 19 W/m 8,4 km/h (2 Bft)
25.09.2014 08:14 10,7 C 10,0 C 98 % 1017,3 hPa 0,0 l/m 0 min 2 min 19 W/m 6,3 km/h (2 Bft)
25.09.2014 08:16 10,7 C 10,0 C 98 % 1017,2 hPa 0,0 l/m 0 min 0 min 19 W/m 8,4 km/h (2 Bft)
25.09.2014 08:18 10,7 C 10,0 C 99 % 1017,2 hPa 0,0 l/m 0 min 0 min 20 W/m 8,4 km/h (2 Bft)
25.09.2014 08:20 10,7 C 10,0 C 99 % 1017,2 hPa 0,0 l/m 0 min 0 min 22 W/m 8,4 km/h (2 Bft)
25.09.2014 08:22 10,8 C 10,0 C 99 % 1017,3 hPa 0,0 l/m 0 min 0 min 23 W/m 8,4 km/h (2 Bft)
25.09.2014 08:24 10,8 C 10,0 C 99 % 1017,2 hPa 0,2 l/m 0 min 2 min 21 W/m 8,4 km/h (2 Bft)
25.09.2014 08:26 10,8 C 10,0 C 99 % 1017,3 hPa 0,0 l/m 0 min 2 min 22 W/m 8,4 km/h (2 Bft)
25.09.2014 08:28 10,8 C 10,0 C 99 % 1017,4 hPa 0,0 l/m 0 min 2 min 23 W/m 4,2 km/h (1 Bft)
25.09.2014 08:30 10,8 C 10,0 C 98 % 1017,5 hPa 0,0 l/m 0 min 2 min 25 W/m 10,5 km/h (2 Bft)
25.09.2014 08:32 10,8 C 10,0 C 98 % 1017,5 hPa 0,0 l/m 0 min 0 min 28 W/m 8,4 km/h (2 Bft)
25.09.2014 08:34 10,9 C 10,0 C 98 % 1017,6 hPa 0,0 l/m 0 min 0 min 31 W/m 6,3 km/h (2 Bft)
25.09.2014 08:36 10,9 C 10,0 C 98 % 1017,7 hPa 0,0 l/m 0 min 0 min 38 W/m 10,5 km/h (2 Bft)
25.09.2014 08:38 10,9 C 10,0 C 98 % 1017,7 hPa 0,2 l/m 0 min 0 min 50 W/m 8,4 km/h (2 Bft)
25.09.2014 08:40 10,9 C 10,0 C 98 % 1017,7 hPa 0,0 l/m 0 min 0 min 62 W/m 8,4 km/h (2 Bft)
25.09.2014 08:42 10,9 C 10,0 C 98 % 1017,7 hPa 0,0 l/m 0 min 0 min 73 W/m 10,5 km/h (2 Bft)
25.09.2014 08:44 11,0 C 10,6 C 98 % 1017,7 hPa 0,0 l/m 0 min 0 min 85 W/m 8,4 km/h (2 Bft)
25.09.2014 08:46 11,0 C 10,6 C 99 % 1017,8 hPa 0,0 l/m 0 min 0 min 98 W/m 4,2 km/h (1 Bft)
25.09.2014 08:48 11,1 C 10,6 C 99 % 1017,8 hPa 0,0 l/m 2 min 0 min 106 W/m 12,6 km/h (3 Bft)
25.09.2014 08:50 11,1 C 10,6 C 99 % 1017,7 hPa 0,0 l/m 2 min 0 min 109 W/m 10,5 km/h (2 Bft)
25.09.2014 08:52 11,1 C 10,6 C 99 % 1017,7 hPa 0,0 l/m 2 min 0 min 109 W/m 6,3 km/h (2 Bft)
25.09.2014 08:54 11,1 C 10,6 C 99 % 1017,7 hPa 0,0 l/m 0 min 0 min 109 W/m 10,5 km/h (2 Bft)
25.09.2014 08:56 11,2 C 10,6 C 99 % 1017,7 hPa 0,0 l/m 0 min 0 min 111 W/m 8,4 km/h (2 Bft)
25.09.2014 08:58 11,2 C 10,6 C 99 % 1017,7 hPa 0,0 l/m 2 min 0 min 126 W/m 10,5 km/h (2 Bft)
25.09.2014 09:00 11,2 C 10,6 C 99 % 1017,7 hPa 0,0 l/m 2 min 0 min 140 W/m 12,6 km/h (3 Bft)
25.09.2014 09:02 11,2 C 10,6 C 99 % 1017,8 hPa 0,0 l/m 2 min 0 min 153 W/m 8,4 km/h (2 Bft)
25.09.2014 09:04 11,3 C 10,6 C 99 % 1017,8 hPa 0,0 l/m 2 min 0 min 160 W/m 8,4 km/h (2 Bft)
25.09.2014 09:06 11,3 C 10,6 C 99 % 1018,0 hPa 0,0 l/m 2 min 0 min 157 W/m 6,3 km/h (2 Bft)
25.09.2014 09:08 11,3 C 10,6 C 99 % 1017,9 hPa 0,0 l/m 2 min 0 min 153 W/m 10,5 km/h (2 Bft)
25.09.2014 09:10 11,4 C 10,6 C 99 % 1018,0 hPa 0,0 l/m 2 min 0 min 158 W/m 10,5 km/h (2 Bft)
25.09.2014 09:12 11,4 C 10,6 C 99 % 1018,1 hPa 0,0 l/m 2 min 0 min 181 W/m 6,3 km/h (2 Bft)
25.09.2014 09:14 11,5 C 11,1 C 99 % 1018,2 hPa 0,0 l/m 2 min 0 min 175 W/m 8,4 km/h (2 Bft)
25.09.2014 09:16 11,5 C 11,1 C 99 % 1018,2 hPa 0,0 l/m 2 min 0 min 172 W/m 10,5 km/h (2 Bft)
25.09.2014 09:18 11,6 C 11,1 C 99 % 1018,2 hPa 0,0 l/m 2 min 0 min 188 W/m 12,6 km/h (3 Bft)
25.09.2014 09:20 11,6 C 11,1 C 99 % 1018,2 hPa 0,0 l/m 2 min 0 min 200 W/m 10,5 km/h (2 Bft)
25.09.2014 09:22 11,7 C 11,1 C 99 % 1018,4 hPa 0,0 l/m 2 min 0 min 212 W/m 14,6 km/h (3 Bft)
25.09.2014 09:24 11,7 C 11,1 C 99 % 1018,5 hPa 0,0 l/m 2 min 0 min 197 W/m 14,6 km/h (3 Bft)
25.09.2014 09:26 11,8 C 11,1 C 99 % 1018,6 hPa 0,0 l/m 2 min 0 min 206 W/m 10,5 km/h (2 Bft)
25.09.2014 09:28 11,8 C 11,1 C 99 % 1018,6 hPa 0,0 l/m 2 min 0 min 171 W/m 12,6 km/h (3 Bft)
25.09.2014 09:30 11,8 C 11,1 C 99 % 1018,5 hPa 0,0 l/m 0 min 0 min 141 W/m 12,6 km/h (3 Bft)
25.09.2014 09:32 11,9 C 11,1 C 99 % 1018,5 hPa 0,0 l/m 0 min 0 min 131 W/m 12,6 km/h (3 Bft)
25.09.2014 09:34 11,9 C 11,1 C 99 % 1018,5 hPa 0,0 l/m 0 min 0 min 134 W/m 10,5 km/h (2 Bft)
25.09.2014 09:36 11,9 C 11,1 C 99 % 1018,5 hPa 0,0 l/m 2 min 0 min 168 W/m 8,4 km/h (2 Bft)
25.09.2014 09:38 11,9 C 11,1 C 99 % 1018,5 hPa 0,0 l/m 2 min 0 min 202 W/m 10,5 km/h (2 Bft)
25.09.2014 09:40 11,9 C 11,1 C 99 % 1018,5 hPa 0,0 l/m 2 min 0 min 240 W/m 8,4 km/h (2 Bft)
25.09.2014 09:42 11,9 C 11,7 C 99 % 1018,5 hPa 0,0 l/m 2 min 0 min 271 W/m 10,5 km/h (2 Bft)
25.09.2014 09:44 12,0 C 11,7 C 99 % 1018,5 hPa 0,0 l/m 2 min 0 min 298 W/m 10,5 km/h (2 Bft)
25.09.2014 09:46 12,0 C 11,7 C 99 % 1018,5 hPa 0,0 l/m 2 min 0 min 382 W/m 10,5 km/h (2 Bft)
25.09.2014 09:48 12,1 C 11,7 C 99 % 1018,5 hPa 0,0 l/m 2 min 0 min 328 W/m 10,5 km/h (2 Bft)
25.09.2014 09:50 12,2 C 11,7 C 99 % 1018,5 hPa 0,0 l/m 2 min 0 min 224 W/m 8,4 km/h (2 Bft)
25.09.2014 09:52 12,2 C 11,7 C 99 % 1018,5 hPa 0,0 l/m 2 min 0 min 216 W/m 8,4 km/h (2 Bft)
25.09.2014 09:54 12,3 C 11,7 C 99 % 1018,6 hPa 0,0 l/m 2 min 0 min 202 W/m 8,4 km/h (2 Bft)
25.09.2014 09:56 12,3 C 11,7 C 99 % 1018,5 hPa 0,0 l/m 2 min 0 min 187 W/m 12,6 km/h (3 Bft)
25.09.2014 09:58 12,3 C 11,7 C 99 % 1018,6 hPa 0,0 l/m 0 min 0 min 170 W/m 12,6 km/h (3 Bft)
25.09.2014 10:00 12,3 C 11,7 C 99 % 1018,5 hPa 0,0 l/m 2 min 0 min 287 W/m 10,5 km/h (2 Bft)
25.09.2014 10:02 12,4 C 11,7 C 99 % 1018,6 hPa 0,0 l/m 2 min 0 min 395 W/m 8,4 km/h (2 Bft)
25.09.2014 10:04 12,4 C 11,7 C 99 % 1018,6 hPa 0,0 l/m 2 min 0 min 407 W/m 10,5 km/h (2 Bft)
25.09.2014 10:06 12,5 C 11,7 C 99 % 1018,7 hPa 0,0 l/m 2 min 0 min 325 W/m 16,7 km/h (3 Bft)
25.09.2014 10:08 12,6 C 11,7 C 99 % 1018,8 hPa 0,0 l/m 2 min 0 min 385 W/m 10,5 km/h (2 Bft)
25.09.2014 10:10 12,7 C 11,7 C 99 % 1018,8 hPa 0,0 l/m 2 min 0 min 451 W/m 10,5 km/h (2 Bft)
25.09.2014 10:12 12,7 C 12,2 C 99 % 1018,9 hPa 0,0 l/m 2 min 0 min 420 W/m 12,6 km/h (3 Bft)
25.09.2014 10:14 12,8 C 12,2 C 99 % 1018,9 hPa 0,0 l/m 2 min 0 min 395 W/m 16,7 km/h (3 Bft)
25.09.2014 10:16 12,9 C 12,2 C 99 % 1018,9 hPa 0,0 l/m 2 min 0 min 407 W/m 20,9 km/h (4 Bft)
25.09.2014 10:18 13,0 C 12,2 C 99 % 1018,9 hPa 0,0 l/m 2 min 0 min 365 W/m 6,3 km/h (2 Bft)
25.09.2014 10:20 13,1 C 12,2 C 99 % 1018,9 hPa 0,0 l/m 2 min 0 min 307 W/m 14,6 km/h (3 Bft)
25.09.2014 10:22 13,1 C 12,2 C 99 % 1018,9 hPa 0,0 l/m 2 min 0 min 268 W/m 12,6 km/h (3 Bft)
25.09.2014 10:24 13,1 C 12,2 C 99 % 1018,9 hPa 0,0 l/m 2 min 0 min 322 W/m 12,6 km/h (3 Bft)
25.09.2014 10:26 13,2 C 12,2 C 99 % 1019,0 hPa 0,0 l/m 2 min 0 min 323 W/m 12,6 km/h (3 Bft)
25.09.2014 10:28 13,3 C 12,2 C 99 % 1019,0 hPa 0,0 l/m 2 min 0 min 303 W/m 18,8 km/h (3 Bft)
25.09.2014 10:30 13,2 C 12,2 C 99 % 1019,0 hPa 0,0 l/m 2 min 0 min 346 W/m 16,7 km/h (3 Bft)
25.09.2014 10:32 13,3 C 12,2 C 99 % 1019,0 hPa 0,0 l/m 2 min 0 min 393 W/m 12,6 km/h (3 Bft)
25.09.2014 10:34 13,3 C 12,2 C 99 % 1019,0 hPa 0,0 l/m 2 min 0 min 401 W/m 16,7 km/h (3 Bft)
25.09.2014 10:36 13,4 C 12,8 C 99 % 1019,0 hPa 0,0 l/m 2 min 0 min 475 W/m 14,6 km/h (3 Bft)
25.09.2014 10:38 13,5 C 12,8 C 99 % 1019,0 hPa 0,0 l/m 2 min 0 min 447 W/m 12,6 km/h (3 Bft)
25.09.2014 10:40 13,6 C 12,8 C 99 % 1019,1 hPa 0,0 l/m 2 min 0 min 501 W/m 12,6 km/h (3 Bft)
25.09.2014 10:42 13,7 C 12,8 C 99 % 1019,0 hPa 0,0 l/m 2 min 0 min 541 W/m 14,6 km/h (3 Bft)
25.09.2014 10:44 13,8 C 13,3 C 99 % 1019,0 hPa 0,0 l/m 2 min 0 min 504 W/m 14,6 km/h (3 Bft)
25.09.2014 10:46 13,9 C 13,3 C 99 % 1018,9 hPa 0,0 l/m 2 min 0 min 441 W/m 12,6 km/h (3 Bft)
25.09.2014 10:48 14,0 C 13,3 C 99 % 1019,0 hPa 0,0 l/m 2 min 0 min 464 W/m 14,6 km/h (3 Bft)
25.09.2014 10:50 14,2 C 13,3 C 99 % 1019,0 hPa 0,0 l/m 2 min 0 min 511 W/m 10,5 km/h (2 Bft)
25.09.2014 10:52 14,2 C 13,3 C 99 % 1019,0 hPa 0,0 l/m 2 min 0 min 425 W/m 16,7 km/h (3 Bft)
25.09.2014 10:54 14,2 C 13,3 C 99 % 1019,0 hPa 0,0 l/m 2 min 0 min 392 W/m 10,5 km/h (2 Bft)
25.09.2014 10:56 14,3 C 13,9 C 99 % 1019,0 hPa 0,0 l/m 2 min 0 min 445 W/m 10,5 km/h (2 Bft)
25.09.2014 10:58 14,4 C 13,9 C 99 % 1019,0 hPa 0,0 l/m 2 min 0 min 498 W/m 8,4 km/h (2 Bft)
25.09.2014 11:00 14,6 C 13,9 C 99 % 1019,0 hPa 0,0 l/m 2 min 0 min 470 W/m 12,6 km/h (3 Bft)
25.09.2014 11:02 14,6 C 13,9 C 99 % 1019,0 hPa 0,0 l/m 2 min 0 min 437 W/m 18,8 km/h (3 Bft)
25.09.2014 11:04 14,6 C 13,9 C 99 % 1019,1 hPa 0,0 l/m 2 min 0 min 371 W/m 18,8 km/h (3 Bft)
25.09.2014 11:06 14,6 C 13,9 C 99 % 1019,1 hPa 0,0 l/m 2 min 0 min 387 W/m 18,8 km/h (3 Bft)
25.09.2014 11:08 14,6 C 13,9 C 99 % 1019,1 hPa 0,0 l/m 2 min 0 min 458 W/m 16,7 km/h (3 Bft)
25.09.2014 11:10 14,7 C 13,9 C 99 % 1019,1 hPa 0,0 l/m 2 min 0 min 428 W/m 12,6 km/h (3 Bft)
25.09.2014 11:12 14,7 C 13,9 C 99 % 1019,1 hPa 0,0 l/m 2 min 0 min 361 W/m 14,6 km/h (3 Bft)
25.09.2014 11:14 14,8 C 13,9 C 99 % 1019,2 hPa 0,0 l/m 2 min 0 min 338 W/m 16,7 km/h (3 Bft)
25.09.2014 11:16 14,8 C 13,9 C 99 % 1019,3 hPa 0,0 l/m 2 min 0 min 329 W/m 18,8 km/h (3 Bft)
25.09.2014 11:18 14,9 C 13,9 C 99 % 1019,4 hPa 0,0 l/m 2 min 0 min 339 W/m 16,7 km/h (3 Bft)
25.09.2014 11:20 14,9 C 13,9 C 99 % 1019,3 hPa 0,0 l/m 2 min 0 min 339 W/m 8,4 km/h (2 Bft)
25.09.2014 11:22 15,0 C 13,9 C 99 % 1019,4 hPa 0,0 l/m 2 min 0 min 357 W/m 20,9 km/h (4 Bft)
25.09.2014 11:24 15,1 C 13,9 C 98 % 1019,6 hPa 0,0 l/m 2 min 0 min 342 W/m 12,6 km/h (3 Bft)
25.09.2014 11:26 15,1 C 13,9 C 98 % 1019,6 hPa 0,0 l/m 2 min 0 min 371 W/m 14,6 km/h (3 Bft)
25.09.2014 11:28 15,2 C 13,9 C 98 % 1019,6 hPa 0,0 l/m 2 min 0 min 356 W/m 16,7 km/h (3 Bft)
25.09.2014 11:30 15,2 C 13,9 C 98 % 1019,6 hPa 0,0 l/m 2 min 0 min 270 W/m 12,6 km/h (3 Bft)
25.09.2014 11:32 15,2 C 13,9 C 97 % 1019,4 hPa 0,0 l/m 2 min 0 min 296 W/m 12,6 km/h (3 Bft)
25.09.2014 11:34 15,2 C 13,9 C 97 % 1019,3 hPa 0,0 l/m 2 min 0 min 340 W/m 14,6 km/h (3 Bft)
25.09.2014 11:36 15,3 C 13,9 C 96 % 1019,4 hPa 0,0 l/m 2 min 0 min 353 W/m 16,7 km/h (3 Bft)
25.09.2014 11:38 15,3 C 13,9 C 96 % 1019,3 hPa 0,0 l/m 2 min 0 min 351 W/m 20,9 km/h (4 Bft)
25.09.2014 11:40 15,4 C 13,9 C 95 % 1019,3 hPa 0,0 l/m 2 min 0 min 346 W/m 16,7 km/h (3 Bft)
25.09.2014 11:42 15,4 C 13,9 C 94 % 1019,3 hPa 0,0 l/m 2 min 0 min 412 W/m 18,8 km/h (3 Bft)
25.09.2014 11:44 15,4 C 13,9 C 94 % 1019,4 hPa 0,0 l/m 2 min 0 min 394 W/m 16,7 km/h (3 Bft)
25.09.2014 11:46 15,5 C 13,9 C 93 % 1019,4 hPa 0,0 l/m 2 min 0 min 342 W/m 18,8 km/h (3 Bft)
25.09.2014 11:48 15,6 C 13,9 C 92 % 1019,4 hPa 0,0 l/m 2 min 0 min 341 W/m 18,8 km/h (3 Bft)
25.09.2014 11:50 15,6 C 13,9 C 92 % 1019,4 hPa 0,0 l/m 2 min 0 min 317 W/m 14,6 km/h (3 Bft)
25.09.2014 11:52 15,6 C 13,9 C 91 % 1019,4 hPa 0,0 l/m 2 min 0 min 359 W/m 12,6 km/h (3 Bft)
25.09.2014 11:54 15,7 C 13,9 C 90 % 1019,5 hPa 0,0 l/m 2 min 0 min 324 W/m 12,6 km/h (3 Bft)
25.09.2014 11:56 15,7 C 13,9 C 90 % 1019,6 hPa 0,0 l/m 0 min 0 min 260 W/m 12,6 km/h (3 Bft)
25.09.2014 11:58 15,8 C 13,9 C 90 % 1019,6 hPa 0,0 l/m 0 min 0 min 237 W/m 14,6 km/h (3 Bft)
25.09.2014 12:00 15,7 C 13,9 C 89 % 1019,7 hPa 0,0 l/m 0 min 0 min 216 W/m 14,6 km/h (3 Bft)
25.09.2014 12:02 15,7 C 13,3 C 88 % 1019,7 hPa 0,0 l/m 0 min 0 min 188 W/m 12,6 km/h (3 Bft)
25.09.2014 12:05 15,7 C 13,3 C 87 % 1019,9 hPa 0,0 l/m 0 min 0 min 186 W/m 18,8 km/h (3 Bft)
25.09.2014 12:06 15,7 C 13,3 C 87 % 1019,9 hPa 0,0 l/m 0 min 0 min 260 W/m 16,7 km/h (3 Bft)
25.09.2014 12:08 15,7 C 13,9 C 87 % 1019,8 hPa 0,0 l/m 0 min 0 min 246 W/m 18,8 km/h (3 Bft)
25.09.2014 12:10 15,8 C 13,9 C 87 % 1019,7 hPa 0,0 l/m 2 min 0 min 303 W/m 14,6 km/h (3 Bft)
25.09.2014 12:12 15,8 C 13,9 C 87 % 1019,7 hPa 0,0 l/m 2 min 0 min 406 W/m 14,6 km/h (3 Bft)
25.09.2014 12:14 15,9 C 14,4 C 87 % 1019,8 hPa 0,0 l/m 0 min 0 min 262 W/m 14,6 km/h (3 Bft)
25.09.2014 12:16 15,9 C 14,4 C 87 % 1019,7 hPa 0,0 l/m 0 min 0 min 255 W/m 20,9 km/h (4 Bft)
25.09.2014 12:18 15,9 C 14,4 C 87 % 1019,8 hPa 0,0 l/m 0 min 0 min 246 W/m 18,8 km/h (3 Bft)
25.09.2014 12:20 15,9 C 14,4 C 86 % 1019,8 hPa 0,0 l/m 0 min 0 min 271 W/m 16,7 km/h (3 Bft)
25.09.2014 12:22 15,9 C 14,4 C 86 % 1019,8 hPa 0,0 l/m 2 min 0 min 312 W/m 10,5 km/h (2 Bft)
25.09.2014 12:24 16,0 C 14,4 C 87 % 1019,7 hPa 0,0 l/m 2 min 0 min 357 W/m 14,6 km/h (3 Bft)
25.09.2014 12:26 16,1 C 15,0 C 87 % 1019,7 hPa 0,0 l/m 2 min 0 min 445 W/m 23,0 km/h (4 Bft)
25.09.2014 12:28 16,2 C 15,0 C 87 % 1019,7 hPa 0,0 l/m 2 min 0 min 394 W/m 23,0 km/h (4 Bft)
25.09.2014 12:30 16,2 C 14,4 C 86 % 1019,7 hPa 0,0 l/m 0 min 0 min 254 W/m 27,2 km/h (4 Bft)
25.09.2014 12:32 16,1 C 14,4 C 85 % 1019,8 hPa 0,0 l/m 0 min 0 min 229 W/m 23,0 km/h (4 Bft)
25.09.2014 12:34 16,1 C 14,4 C 84 % 1019,8 hPa 0,0 l/m 0 min 0 min 195 W/m 23,0 km/h (4 Bft)
25.09.2014 12:36 16,1 C 13,9 C 84 % 1019,7 hPa 0,0 l/m 0 min 0 min 190 W/m 14,6 km/h (3 Bft)
25.09.2014 12:38 16,1 C 14,4 C 84 % 1019,6 hPa 0,0 l/m 0 min 0 min 278 W/m 18,8 km/h (3 Bft)
25.09.2014 12:40 16,1 C 14,4 C 84 % 1019,6 hPa 0,0 l/m 2 min 0 min 318 W/m 14,6 km/h (3 Bft)
25.09.2014 12:42 16,1 C 14,4 C 85 % 1019,7 hPa 0,0 l/m 0 min 0 min 162 W/m 14,6 km/h (3 Bft)
25.09.2014 12:44 16,1 C 14,4 C 84 % 1019,6 hPa 0,0 l/m 0 min 0 min 185 W/m 14,6 km/h (3 Bft)
25.09.2014 12:46 16,1 C 14,4 C 84 % 1019,7 hPa 0,0 l/m 0 min 0 min 205 W/m 18,8 km/h (3 Bft)
25.09.2014 12:48 16,1 C 14,4 C 84 % 1019,7 hPa 0,0 l/m 0 min 0 min 263 W/m 25,1 km/h (4 Bft)
25.09.2014 12:50 16,1 C 15,0 C 84 % 1019,7 hPa 0,0 l/m 2 min 0 min 311 W/m 20,9 km/h (4 Bft)
25.09.2014 12:52 16,2 C 15,0 C 84 % 1019,7 hPa 0,0 l/m 2 min 0 min 454 W/m 14,6 km/h (3 Bft)
25.09.2014 12:54 16,2 C 15,0 C 83 % 1019,7 hPa 0,0 l/m 2 min 0 min 346 W/m 12,6 km/h (3 Bft)
25.09.2014 12:56 16,3 C 15,6 C 84 % 1019,7 hPa 0,0 l/m 2 min 0 min 371 W/m 18,8 km/h (3 Bft)
25.09.2014 12:58 16,3 C 15,6 C 83 % 1019,7 hPa 0,0 l/m 2 min 0 min 427 W/m 18,8 km/h (3 Bft)
25.09.2014 13:00 16,4 C 15,0 C 83 % 1019,7 hPa 0,0 l/m 2 min 0 min 329 W/m 16,7 km/h (3 Bft)
25.09.2014 13:02 16,4 C 15,0 C 82 % 1019,8 hPa 0,0 l/m 0 min 0 min 250 W/m 14,6 km/h (3 Bft)
25.09.2014 13:04 16,5 C 15,0 C 82 % 1019,8 hPa 0,0 l/m 0 min 0 min 245 W/m 14,6 km/h (3 Bft)
25.09.2014 13:06 16,6 C 15,0 C 82 % 1019,8 hPa 0,0 l/m 0 min 0 min 156 W/m 16,7 km/h (3 Bft)
25.09.2014 13:08 16,5 C 15,0 C 81 % 1019,8 hPa 0,0 l/m 0 min 0 min 149 W/m 16,7 km/h (3 Bft)
25.09.2014 13:10 16,5 C 15,0 C 80 % 1019,8 hPa 0,0 l/m 0 min 0 min 238 W/m 18,8 km/h (3 Bft)
25.09.2014 13:12 16,5 C 15,0 C 80 % 1019,9 hPa 0,0 l/m 2 min 0 min 388 W/m 20,9 km/h (4 Bft)
25.09.2014 13:14 16,6 C 15,6 C 80 % 1019,9 hPa 0,0 l/m 2 min 0 min 761 W/m 14,6 km/h (3 Bft)
25.09.2014 13:16 16,6 C 15,6 C 80 % 1019,9 hPa 0,0 l/m 2 min 0 min 446 W/m 18,8 km/h (3 Bft)
25.09.2014 13:18 16,7 C 15,6 C 81 % 1019,9 hPa 0,0 l/m 2 min 0 min 460 W/m 18,8 km/h (3 Bft)
25.09.2014 13:20 16,8 C 15,6 C 80 % 1019,8 hPa 0,0 l/m 2 min 0 min 424 W/m 16,7 km/h (3 Bft)
25.09.2014 13:22 16,8 C 15,6 C 80 % 1019,7 hPa 0,0 l/m 2 min 0 min 418 W/m 16,7 km/h (3 Bft)
25.09.2014 13:24 16,9 C 15,6 C 79 % 1019,8 hPa 0,0 l/m 2 min 0 min 464 W/m 25,1 km/h (4 Bft)
25.09.2014 13:26 16,9 C 15,6 C 78 % 1019,7 hPa 0,0 l/m 2 min 0 min 494 W/m 25,1 km/h (4 Bft)
25.09.2014 13:28 17,0 C 15,6 C 78 % 1019,7 hPa 0,0 l/m 2 min 0 min 426 W/m 27,2 km/h (4 Bft)
25.09.2014 13:30 17,1 C 15,6 C 77 % 1019,7 hPa 0,0 l/m 2 min 0 min 369 W/m 25,1 km/h (4 Bft)
25.09.2014 13:32 17,1 C 15,6 C 77 % 1019,7 hPa 0,0 l/m 2 min 0 min 340 W/m 16,7 km/h (3 Bft)
25.09.2014 13:34 17,1 C 15,6 C 77 % 1019,7 hPa 0,0 l/m 2 min 0 min 384 W/m 16,7 km/h (3 Bft)
25.09.2014 13:36 17,1 C 15,6 C 78 % 1019,7 hPa 0,0 l/m 2 min 0 min 460 W/m 12,6 km/h (3 Bft)
25.09.2014 13:38 17,2 C 16,1 C 78 % 1019,8 hPa 0,0 l/m 2 min 0 min 506 W/m 14,6 km/h (3 Bft)
25.09.2014 13:40 17,3 C 16,1 C 79 % 1019,7 hPa 0,0 l/m 2 min 0 min 566 W/m 14,6 km/h (3 Bft)
25.09.2014 13:42 17,3 C 16,7 C 79 % 1019,8 hPa 0,0 l/m 2 min 0 min 675 W/m 18,8 km/h (3 Bft)
25.09.2014 13:44 17,4 C 16,1 C 78 % 1019,7 hPa 0,0 l/m 2 min 0 min 638 W/m 20,9 km/h (4 Bft)
25.09.2014 13:46 17,5 C 16,1 C 77 % 1019,7 hPa 0,0 l/m 2 min 0 min 609 W/m 16,7 km/h (3 Bft)
25.09.2014 13:48 17,6 C 16,1 C 77 % 1019,7 hPa 0,0 l/m 2 min 0 min 561 W/m 20,9 km/h (4 Bft)
25.09.2014 13:50 17,6 C 16,1 C 76 % 1019,6 hPa 0,0 l/m 2 min 0 min 581 W/m 18,8 km/h (3 Bft)
25.09.2014 13:52 17,7 C 16,7 C 76 % 1019,7 hPa 0,0 l/m 2 min 0 min 620 W/m 23,0 km/h (4 Bft)
25.09.2014 13:54 17,8 C 16,7 C 77 % 1019,9 hPa 0,0 l/m 2 min 0 min 596 W/m 12,6 km/h (3 Bft)
25.09.2014 13:56 17,9 C 16,7 C 76 % 1019,9 hPa 0,0 l/m 2 min 0 min 435 W/m 20,9 km/h (4 Bft)
25.09.2014 13:58 17,9 C 16,7 C 75 % 1019,9 hPa 0,0 l/m 2 min 0 min 326 W/m 20,9 km/h (4 Bft)
25.09.2014 14:00 17,9 C 16,7 C 74 % 1019,8 hPa 0,0 l/m 2 min 0 min 369 W/m 23,0 km/h (4 Bft)
25.09.2014 14:02 17,9 C 16,1 C 73 % 1019,7 hPa 0,0 l/m 2 min 0 min 367 W/m 23,0 km/h (4 Bft)
25.09.2014 14:04 17,9 C 16,1 C 73 % 1019,7 hPa 0,0 l/m 2 min 0 min 440 W/m 16,7 km/h (3 Bft)
25.09.2014 14:06 17,9 C 16,1 C 74 % 1019,7 hPa 0,0 l/m 2 min 0 min 356 W/m 23,0 km/h (4 Bft)
25.09.2014 14:08 17,9 C 16,1 C 73 % 1019,6 hPa 0,0 l/m 0 min 0 min 288 W/m 23,0 km/h (4 Bft)
25.09.2014 14:10 17,8 C 15,6 C 73 % 1019,6 hPa 0,0 l/m 0 min 0 min 263 W/m 23,0 km/h (4 Bft)
25.09.2014 14:12 17,8 C 16,1 C 73 % 1019,7 hPa 0,0 l/m 2 min 0 min 428 W/m 23,0 km/h (4 Bft)
25.09.2014 14:14 17,8 C 16,1 C 74 % 1019,8 hPa 0,0 l/m 2 min 0 min 593 W/m 18,8 km/h (3 Bft)
25.09.2014 14:16 17,8 C 16,1 C 74 % 1019,7 hPa 0,0 l/m 2 min 0 min 603 W/m 27,2 km/h (4 Bft)
25.09.2014 14:18 17,9 C 16,7 C 74 % 1019,8 hPa 0,0 l/m 2 min 0 min 677 W/m 16,7 km/h (3 Bft)
25.09.2014 14:20 17,9 C 16,7 C 73 % 1019,8 hPa 0,0 l/m 2 min 0 min 624 W/m 23,0 km/h (4 Bft)
25.09.2014 14:22 18,0 C 16,7 C 73 % 1019,9 hPa 0,0 l/m 2 min 0 min 633 W/m 18,8 km/h (3 Bft)
25.09.2014 14:24 18,1 C 16,7 C 73 % 1019,8 hPa 0,0 l/m 2 min 0 min 622 W/m 20,9 km/h (4 Bft)
25.09.2014 14:26 18,2 C 16,7 C 72 % 1019,9 hPa 0,0 l/m 2 min 0 min 680 W/m 23,0 km/h (4 Bft)
25.09.2014 14:28 18,3 C 16,7 C 72 % 1019,9 hPa 0,0 l/m 2 min 0 min 646 W/m 18,8 km/h (3 Bft)
25.09.2014 14:30 18,3 C 16,7 C 71 % 1019,9 hPa 0,0 l/m 2 min 0 min 395 W/m 20,9 km/h (4 Bft)
25.09.2014 14:32 18,4 C 16,7 C 71 % 1019,8 hPa 0,0 l/m 2 min 0 min 450 W/m 29,3 km/h (5 Bft)
25.09.2014 14:34 18,4 C 16,7 C 69 % 1019,8 hPa 0,0 l/m 2 min 0 min 577 W/m 23,0 km/h (4 Bft)
25.09.2014 14:36 18,4 C 16,7 C 70 % 1019,9 hPa 0,0 l/m 2 min 0 min 642 W/m 25,1 km/h (4 Bft)
25.09.2014 14:38 18,5 C 16,7 C 71 % 1019,8 hPa 0,0 l/m 2 min 0 min 646 W/m 27,2 km/h (4 Bft)
25.09.2014 14:40 18,6 C 17,2 C 70 % 1019,8 hPa 0,0 l/m 2 min 0 min 637 W/m 27,2 km/h (4 Bft)
25.09.2014 14:42 18,6 C 17,2 C 69 % 1019,8 hPa 0,0 l/m 2 min 0 min 618 W/m 18,8 km/h (3 Bft)
25.09.2014 14:44 18,7 C 17,2 C 70 % 1019,8 hPa 0,0 l/m 2 min 0 min 405 W/m 27,2 km/h (4 Bft)
25.09.2014 14:46 18,7 C 16,7 C 69 % 1019,8 hPa 0,0 l/m 2 min 0 min 387 W/m 16,7 km/h (3 Bft)
25.09.2014 14:48 18,7 C 16,7 C 69 % 1019,7 hPa 0,0 l/m 2 min 0 min 348 W/m 25,1 km/h (4 Bft)
25.09.2014 14:50 18,7 C 16,7 C 69 % 1019,8 hPa 0,0 l/m 0 min 0 min 216 W/m 18,8 km/h (3 Bft)
25.09.2014 14:52 18,7 C 16,1 C 68 % 1019,7 hPa 0,0 l/m 0 min 0 min 205 W/m 18,8 km/h (3 Bft)
25.09.2014 14:54 18,6 C 16,1 C 68 % 1019,8 hPa 0,0 l/m 0 min 0 min 229 W/m 14,6 km/h (3 Bft)
25.09.2014 14:56 18,6 C 16,1 C 68 % 1019,8 hPa 0,0 l/m 0 min 0 min 266 W/m 12,6 km/h (3 Bft)
25.09.2014 14:58 18,5 C 16,1 C 70 % 1019,8 hPa 0,0 l/m 2 min 0 min 281 W/m 12,6 km/h (3 Bft)
25.09.2014 15:00 18,5 C 16,7 C 70 % 1019,9 hPa 0,0 l/m 2 min 0 min 584 W/m 14,6 km/h (3 Bft)
25.09.2014 15:02 18,5 C 16,7 C 70 % 1020,0 hPa 0,0 l/m 2 min 0 min 596 W/m 12,6 km/h (3 Bft)
25.09.2014 15:04 18,6 C 16,7 C 70 % 1019,9 hPa 0,0 l/m 2 min 0 min 552 W/m 10,5 km/h (2 Bft)
25.09.2014 15:06 18,7 C 16,7 C 71 % 1020,0 hPa 0,0 l/m 2 min 0 min 518 W/m 16,7 km/h (3 Bft)
25.09.2014 15:08 18,8 C 16,7 C 70 % 1020,0 hPa 0,0 l/m 2 min 0 min 535 W/m 18,8 km/h (3 Bft)
25.09.2014 15:10 18,8 C 16,7 C 67 % 1020,0 hPa 0,0 l/m 2 min 0 min 484 W/m 20,9 km/h (4 Bft)
25.09.2014 15:12 18,8 C 16,7 C 67 % 1020,0 hPa 0,0 l/m 2 min 0 min 380 W/m 23,0 km/h (4 Bft)
25.09.2014 15:14 18,8 C 16,7 C 67 % 1020,0 hPa 0,0 l/m 2 min 0 min 575 W/m 25,1 km/h (4 Bft)
25.09.2014 15:16 18,8 C 16,7 C 66 % 1020,0 hPa 0,0 l/m 2 min 0 min 559 W/m 18,8 km/h (3 Bft)
25.09.2014 15:18 18,9 C 16,7 C 67 % 1020,0 hPa 0,0 l/m 2 min 0 min 562 W/m 27,2 km/h (4 Bft)
25.09.2014 15:20 18,9 C 16,7 C 67 % 1019,8 hPa 0,0 l/m 2 min 0 min 617 W/m 18,8 km/h (3 Bft)
25.09.2014 15:22 18,9 C 17,2 C 67 % 1019,8 hPa 0,0 l/m 2 min 0 min 612 W/m 20,9 km/h (4 Bft)
25.09.2014 15:24 18,9 C 17,2 C 66 % 1019,7 hPa 0,0 l/m 2 min 0 min 555 W/m 25,1 km/h (4 Bft)
25.09.2014 15:26 18,9 C 17,2 C 66 % 1019,7 hPa 0,0 l/m 2 min 0 min 487 W/m 27,2 km/h (4 Bft)
25.09.2014 15:28 18,9 C 17,2 C 65 % 1019,7 hPa 0,0 l/m 2 min 0 min 390 W/m 25,1 km/h (4 Bft)
25.09.2014 15:30 18,9 C 16,7 C 66 % 1019,8 hPa 0,0 l/m 0 min 0 min 254 W/m 25,1 km/h (4 Bft)
25.09.2014 15:32 18,9 C 16,7 C 66 % 1019,8 hPa 0,0 l/m 0 min 0 min 245 W/m 20,9 km/h (4 Bft)
25.09.2014 15:34 18,8 C 16,7 C 65 % 1019,7 hPa 0,0 l/m 2 min 0 min 290 W/m 14,6 km/h (3 Bft)
25.09.2014 15:36 18,8 C 16,7 C 67 % 1019,6 hPa 0,0 l/m 2 min 0 min 310 W/m 16,7 km/h (3 Bft)
25.09.2014 15:38 18,8 C 16,7 C 66 % 1019,5 hPa 0,0 l/m 2 min 0 min 263 W/m 23,0 km/h (4 Bft)
25.09.2014 15:40 18,7 C 16,1 C 65 % 1019,5 hPa 0,0 l/m 2 min 0 min 280 W/m 27,2 km/h (4 Bft)
25.09.2014 15:42 18,6 C 16,7 C 65 % 1019,4 hPa 0,0 l/m 2 min 0 min 405 W/m 23,0 km/h (4 Bft)
25.09.2014 15:44 18,7 C 16,7 C 66 % 1019,5 hPa 0,0 l/m 2 min 0 min 515 W/m 20,9 km/h (4 Bft)
25.09.2014 15:46 18,7 C 16,7 C 66 % 1019,5 hPa 0,0 l/m 2 min 0 min 529 W/m 18,8 km/h (3 Bft)
25.09.2014 15:48 18,7 C 17,2 C 66 % 1019,6 hPa 0,0 l/m 2 min 0 min 556 W/m 18,8 km/h (3 Bft)
25.09.2014 15:50 18,8 C 17,2 C 67 % 1019,7 hPa 0,0 l/m 2 min 0 min 605 W/m 20,9 km/h (4 Bft)
25.09.2014 15:52 18,9 C 17,2 C 67 % 1019,7 hPa 0,0 l/m 2 min 0 min 617 W/m 20,9 km/h (4 Bft)
25.09.2014 15:54 18,9 C 17,2 C 66 % 1019,7 hPa 0,0 l/m 2 min 0 min 319 W/m 16,7 km/h (3 Bft)
25.09.2014 15:56 18,9 C 16,7 C 65 % 1019,7 hPa 0,0 l/m 2 min 0 min 293 W/m 14,6 km/h (3 Bft)
25.09.2014 15:58 18,8 C 16,7 C 65 % 1019,7 hPa 0,0 l/m 2 min 0 min 278 W/m 20,9 km/h (4 Bft)
25.09.2014 16:00 18,8 C 16,7 C 65 % 1019,6 hPa 0,0 l/m 2 min 0 min 277 W/m 27,2 km/h (4 Bft)
25.09.2014 16:02 18,7 C 16,7 C 65 % 1019,6 hPa 0,0 l/m 2 min 0 min 296 W/m 25,1 km/h (4 Bft)
25.09.2014 16:04 18,6 C 16,7 C 66 % 1019,6 hPa 0,0 l/m 2 min 0 min 320 W/m 18,8 km/h (3 Bft)
25.09.2014 16:06 18,6 C 16,7 C 65 % 1019,6 hPa 0,0 l/m 2 min 0 min 328 W/m 23,0 km/h (4 Bft)
25.09.2014 16:08 18,6 C 16,7 C 66 % 1019,7 hPa 0,0 l/m 2 min 0 min 328 W/m 20,9 km/h (4 Bft)
25.09.2014 16:10 18,6 C 16,7 C 66 % 1019,7 hPa 0,0 l/m 2 min 0 min 384 W/m 12,6 km/h (3 Bft)
25.09.2014 16:12 18,6 C 16,7 C 68 % 1019,7 hPa 0,0 l/m 2 min 0 min 348 W/m 14,6 km/h (3 Bft)
25.09.2014 16:14 18,6 C 16,7 C 67 % 1019,6 hPa 0,0 l/m 2 min 0 min 293 W/m 23,0 km/h (4 Bft)
25.09.2014 16:16 18,6 C 16,7 C 66 % 1019,6 hPa 0,0 l/m 2 min 0 min 271 W/m 25,1 km/h (4 Bft)
25.09.2014 16:18 18,6 C 16,7 C 65 % 1019,6 hPa 0,0 l/m 2 min 0 min 267 W/m 18,8 km/h (3 Bft)
25.09.2014 16:20 18,6 C 16,7 C 66 % 1019,6 hPa 0,0 l/m 2 min 0 min 286 W/m 18,8 km/h (3 Bft)
25.09.2014 16:22 18,6 C 16,7 C 66 % 1019,6 hPa 0,0 l/m 2 min 0 min 251 W/m 20,9 km/h (4 Bft)
25.09.2014 16:24 18,6 C 16,7 C 66 % 1019,6 hPa 0,0 l/m 2 min 0 min 229 W/m 29,3 km/h (5 Bft)
25.09.2014 16:26 18,4 C 16,1 C 64 % 1019,6 hPa 0,0 l/m 2 min 0 min 230 W/m 33,5 km/h (5 Bft)
25.09.2014 16:28 18,4 C 16,1 C 65 % 1019,7 hPa 0,0 l/m 2 min 0 min 252 W/m 18,8 km/h (3 Bft)
25.09.2014 16:30 18,4 C 16,1 C 65 % 1019,6 hPa 0,0 l/m 2 min 0 min 270 W/m 16,7 km/h (3 Bft)
25.09.2014 16:32 18,3 C 16,7 C 65 % 1019,6 hPa 0,0 l/m 2 min 0 min 354 W/m 18,8 km/h (3 Bft)
25.09.2014 16:34 18,3 C 16,7 C 67 % 1019,6 hPa 0,0 l/m 2 min 0 min 371 W/m 12,6 km/h (3 Bft)
25.09.2014 16:36 18,3 C 16,7 C 66 % 1019,7 hPa 0,0 l/m 2 min 0 min 267 W/m 20,9 km/h (4 Bft)
25.09.2014 16:38 18,3 C 16,7 C 66 % 1019,7 hPa 0,0 l/m 2 min 0 min 255 W/m 20,9 km/h (4 Bft)
25.09.2014 16:40 18,3 C 16,7 C 66 % 1019,7 hPa 0,0 l/m 2 min 0 min 247 W/m 14,6 km/h (3 Bft)
25.09.2014 16:42 18,3 C 16,7 C 66 % 1019,7 hPa 0,0 l/m 2 min 0 min 215 W/m 18,8 km/h (3 Bft)
25.09.2014 16:44 18,3 C 16,1 C 66 % 1019,7 hPa 0,0 l/m 2 min 0 min 197 W/m 16,7 km/h (3 Bft)
25.09.2014 16:46 18,2 C 16,1 C 66 % 1019,7 hPa 0,0 l/m 0 min 0 min 190 W/m 16,7 km/h (3 Bft)
25.09.2014 16:48 18,2 C 16,1 C 66 % 1019,7 hPa 0,0 l/m 0 min 0 min 180 W/m 20,9 km/h (4 Bft)
25.09.2014 16:50 18,2 C 16,1 C 66 % 1019,8 hPa 0,0 l/m 0 min 0 min 179 W/m 20,9 km/h (4 Bft)
25.09.2014 16:52 18,1 C 16,1 C 66 % 1019,8 hPa 0,0 l/m 2 min 0 min 196 W/m 23,0 km/h (4 Bft)
25.09.2014 16:54 18,1 C 16,1 C 66 % 1019,8 hPa 0,0 l/m 2 min 0 min 198 W/m 20,9 km/h (4 Bft)
25.09.2014 16:56 18,0 C 16,1 C 66 % 1019,9 hPa 0,0 l/m 2 min 0 min 190 W/m 37,7 km/h (5 Bft)
25.09.2014 16:58 17,9 C 16,1 C 66 % 1019,9 hPa 0,0 l/m 0 min 0 min 178 W/m 27,2 km/h (4 Bft)
25.09.2014 17:00 17,9 C 16,1 C 66 % 1019,8 hPa 0,0 l/m 0 min 0 min 165 W/m 18,8 km/h (3 Bft)
25.09.2014 17:02 17,8 C 15,6 C 66 % 1019,6 hPa 0,0 l/m 0 min 0 min 170 W/m 29,3 km/h (5 Bft)
25.09.2014 17:04 17,8 C 15,6 C 66 % 1019,7 hPa 0,0 l/m 2 min 0 min 182 W/m 23,0 km/h (4 Bft)
25.09.2014 17:06 17,7 C 15,6 C 66 % 1019,6 hPa 0,0 l/m 2 min 0 min 190 W/m 29,3 km/h (5 Bft)
25.09.2014 17:08 17,7 C 15,6 C 66 % 1019,6 hPa 0,0 l/m 2 min 0 min 169 W/m 20,9 km/h (4 Bft)
25.09.2014 17:10 17,7 C 15,6 C 67 % 1019,5 hPa 0,0 l/m 0 min 0 min 149 W/m 18,8 km/h (3 Bft)
25.09.2014 17:12 17,6 C 15,6 C 67 % 1019,5 hPa 0,0 l/m 0 min 0 min 131 W/m 23,0 km/h (4 Bft)
25.09.2014 17:14 17,6 C 15,6 C 67 % 1019,5 hPa 0,0 l/m 0 min 0 min 117 W/m 25,1 km/h (4 Bft)
25.09.2014 17:16 17,6 C 15,6 C 67 % 1019,6 hPa 0,0 l/m 0 min 0 min 108 W/m 23,0 km/h (4 Bft)
25.09.2014 17:18 17,5 C 15,6 C 67 % 1019,7 hPa 0,0 l/m 0 min 0 min 110 W/m 29,3 km/h (5 Bft)
25.09.2014 17:20 17,4 C 15,0 C 67 % 1019,8 hPa 0,0 l/m 0 min 0 min 110 W/m 23,0 km/h (4 Bft)
25.09.2014 17:22 17,4 C 15,0 C 68 % 1019,9 hPa 0,0 l/m 0 min 0 min 112 W/m 23,0 km/h (4 Bft)
25.09.2014 17:24 17,4 C 15,0 C 69 % 1019,8 hPa 0,0 l/m 0 min 0 min 112 W/m 12,6 km/h (3 Bft)
25.09.2014 17:26 17,3 C 15,0 C 69 % 1019,8 hPa 0,0 l/m 0 min 0 min 103 W/m 16,7 km/h (3 Bft)
25.09.2014 17:28 17,3 C 15,0 C 69 % 1019,7 hPa 0,0 l/m 0 min 0 min 94 W/m 18,8 km/h (3 Bft)
25.09.2014 17:30 17,3 C 15,0 C 69 % 1019,8 hPa 0,0 l/m 0 min 0 min 95 W/m 18,8 km/h (3 Bft)
25.09.2014 17:32 17,3 C 15,0 C 70 % 1019,8 hPa 0,0 l/m 0 min 0 min 100 W/m 12,6 km/h (3 Bft)
25.09.2014 17:34 17,2 C 15,0 C 70 % 1019,8 hPa 0,0 l/m 0 min 0 min 111 W/m 14,6 km/h (3 Bft)
25.09.2014 17:36 17,2 C 15,0 C 70 % 1019,8 hPa 0,0 l/m 0 min 0 min 119 W/m 20,9 km/h (4 Bft)
25.09.2014 17:38 17,2 C 15,0 C 70 % 1019,9 hPa 0,0 l/m 0 min 0 min 119 W/m 16,7 km/h (3 Bft)
25.09.2014 17:40 17,2 C 15,0 C 70 % 1019,9 hPa 0,0 l/m 0 min 0 min 114 W/m 14,6 km/h (3 Bft)
25.09.2014 17:42 17,2 C 15,0 C 70 % 1019,9 hPa 0,0 l/m 0 min 0 min 102 W/m 18,8 km/h (3 Bft)
25.09.2014 17:44 17,2 C 15,0 C 71 % 1019,8 hPa 0,0 l/m 0 min 0 min 94 W/m 18,8 km/h (3 Bft)
25.09.2014 17:46 17,1 C 15,0 C 71 % 1019,9 hPa 0,0 l/m 0 min 0 min 88 W/m 18,8 km/h (3 Bft)
25.09.2014 17:48 17,1 C 15,0 C 71 % 1019,7 hPa 0,0 l/m 0 min 0 min 83 W/m 12,6 km/h (3 Bft)
25.09.2014 17:50 17,1 C 15,0 C 70 % 1019,7 hPa 0,0 l/m 0 min 0 min 78 W/m 20,9 km/h (4 Bft)
25.09.2014 17:52 17,0 C 15,0 C 70 % 1019,7 hPa 0,0 l/m 0 min 0 min 77 W/m 29,3 km/h (5 Bft)
25.09.2014 17:54 16,9 C 15,0 C 70 % 1019,7 hPa 0,0 l/m 0 min 0 min 76 W/m 23,0 km/h (4 Bft)
25.09.2014 17:56 16,9 C 15,0 C 71 % 1019,7 hPa 0,0 l/m 0 min 0 min 78 W/m 16,7 km/h (3 Bft)
25.09.2014 17:58 16,9 C 15,0 C 71 % 1019,7 hPa 0,0 l/m 0 min 0 min 82 W/m 25,1 km/h (4 Bft)
25.09.2014 18:00 16,9 C 15,0 C 70 % 1019,6 hPa 0,0 l/m 0 min 0 min 83 W/m 20,9 km/h (4 Bft)
25.09.2014 18:02 16,8 C 15,0 C 71 % 1019,8 hPa 0,0 l/m 0 min 0 min 79 W/m 20,9 km/h (4 Bft)
25.09.2014 18:05 16,8 C 15,0 C 70 % 1019,6 hPa 0,0 l/m 0 min 0 min 75 W/m 20,9 km/h (4 Bft)
25.09.2014 18:06 16,8 C 15,0 C 70 % 1019,6 hPa 0,0 l/m 0 min 0 min 72 W/m 12,6 km/h (3 Bft)
25.09.2014 18:08 16,8 C 14,4 C 70 % 1019,7 hPa 0,0 l/m 0 min 0 min 67 W/m 20,9 km/h (4 Bft)
25.09.2014 18:10 16,7 C 14,4 C 70 % 1019,6 hPa 0,0 l/m 0 min 0 min 59 W/m 14,6 km/h (3 Bft)
25.09.2014 18:12 16,7 C 14,4 C 70 % 1019,6 hPa 0,0 l/m 0 min 0 min 54 W/m 16,7 km/h (3 Bft)
25.09.2014 18:14 16,7 C 14,4 C 70 % 1019,7 hPa 0,0 l/m 0 min 0 min 53 W/m 14,6 km/h (3 Bft)
25.09.2014 18:16 16,7 C 14,4 C 71 % 1019,7 hPa 0,0 l/m 0 min 0 min 52 W/m 16,7 km/h (3 Bft)
25.09.2014 18:18 16,7 C 14,4 C 71 % 1019,6 hPa 0,0 l/m 0 min 0 min 53 W/m 12,6 km/h (3 Bft)
25.09.2014 18:20 16,6 C 14,4 C 71 % 1019,6 hPa 0,0 l/m 0 min 0 min 51 W/m 12,6 km/h (3 Bft)
25.09.2014 18:22 16,6 C 14,4 C 71 % 1019,6 hPa 0,0 l/m 0 min 0 min 49 W/m 14,6 km/h (3 Bft)
25.09.2014 18:24 16,6 C 14,4 C 72 % 1019,6 hPa 0,0 l/m 0 min 0 min 50 W/m 16,7 km/h (3 Bft)
25.09.2014 18:26 16,6 C 14,4 C 72 % 1019,7 hPa 0,0 l/m 0 min 0 min 57 W/m 14,6 km/h (3 Bft)
25.09.2014 18:28 16,5 C 14,4 C 72 % 1019,7 hPa 0,0 l/m 0 min 0 min 57 W/m 10,5 km/h (2 Bft)
25.09.2014 18:30 16,5 C 13,9 C 72 % 1019,6 hPa 0,0 l/m 0 min 0 min 49 W/m 14,6 km/h (3 Bft)
25.09.2014 18:32 16,4 C 13,9 C 72 % 1019,6 hPa 0,0 l/m 0 min 0 min 43 W/m 16,7 km/h (3 Bft)
25.09.2014 18:34 16,4 C 13,9 C 72 % 1019,7 hPa 0,0 l/m 0 min 0 min 40 W/m 12,6 km/h (3 Bft)
25.09.2014 18:36 16,4 C 13,9 C 72 % 1019,8 hPa 0,0 l/m 0 min 0 min 37 W/m 14,6 km/h (3 Bft)
25.09.2014 18:38 16,4 C 13,9 C 72 % 1019,8 hPa 0,0 l/m 0 min 0 min 34 W/m 16,7 km/h (3 Bft)
25.09.2014 18:40 16,3 C 13,9 C 72 % 1019,8 hPa 0,0 l/m 0 min 0 min 32 W/m 10,5 km/h (2 Bft)
25.09.2014 18:42 16,3 C 13,9 C 73 % 1019,9 hPa 0,0 l/m 0 min 0 min 30 W/m 18,8 km/h (3 Bft)
25.09.2014 18:44 16,3 C 13,9 C 73 % 1019,9 hPa 0,0 l/m 0 min 0 min 26 W/m 14,6 km/h (3 Bft)
25.09.2014 18:46 16,2 C 13,9 C 73 % 1019,9 hPa 0,0 l/m 0 min 0 min 26 W/m 10,5 km/h (2 Bft)
25.09.2014 18:48 16,2 C 13,9 C 73 % 1019,9 hPa 0,0 l/m 0 min 0 min 28 W/m 6,3 km/h (2 Bft)
25.09.2014 18:50 16,2 C 13,9 C 74 % 1019,9 hPa 0,0 l/m 0 min 0 min 31 W/m 12,6 km/h (3 Bft)
25.09.2014 18:52 16,2 C 13,9 C 73 % 1019,9 hPa 0,0 l/m 0 min 0 min 32 W/m 14,6 km/h (3 Bft)
25.09.2014 18:54 16,1 C 13,9 C 73 % 1019,9 hPa 0,0 l/m 0 min 0 min 33 W/m 20,9 km/h (4 Bft)
25.09.2014 18:56 16,1 C 13,9 C 74 % 1019,9 hPa 0,0 l/m 0 min 0 min 32 W/m 10,5 km/h (2 Bft)
25.09.2014 18:58 16,1 C 13,9 C 74 % 1020,0 hPa 0,0 l/m 0 min 0 min 29 W/m 10,5 km/h (2 Bft)
25.09.2014 19:00 16,1 C 13,9 C 74 % 1020,0 hPa 0,0 l/m 2 min 0 min 28 W/m 8,4 km/h (2 Bft)
25.09.2014 19:02 16,1 C 13,9 C 75 % 1020,1 hPa 0,0 l/m 2 min 0 min 26 W/m 10,5 km/h (2 Bft)
25.09.2014 19:04 16,0 C 13,9 C 75 % 1020,1 hPa 0,0 l/m 0 min 0 min 21 W/m 8,4 km/h (2 Bft)
25.09.2014 19:06 16,0 C 13,9 C 75 % 1020,3 hPa 0,0 l/m 0 min 0 min 18 W/m 6,3 km/h (2 Bft)
25.09.2014 19:08 16,0 C 13,9 C 75 % 1020,3 hPa 0,0 l/m 0 min 0 min 15 W/m 8,4 km/h (2 Bft)
25.09.2014 19:10 15,9 C 13,9 C 75 % 1020,4 hPa 0,0 l/m 0 min 0 min 14 W/m 12,6 km/h (3 Bft)
25.09.2014 19:12 15,9 C 13,9 C 75 % 1020,3 hPa 0,0 l/m 2 min 0 min 14 W/m 10,5 km/h (2 Bft)
25.09.2014 19:14 15,9 C 13,9 C 75 % 1020,3 hPa 0,0 l/m 0 min 0 min 12 W/m 12,6 km/h (3 Bft)
25.09.2014 19:16 15,9 C 13,9 C 75 % 1020,3 hPa 0,0 l/m 0 min 0 min 10 W/m 8,4 km/h (2 Bft)
25.09.2014 19:18 15,9 C 13,3 C 75 % 1020,4 hPa 0,0 l/m 0 min 0 min 9 W/m 8,4 km/h (2 Bft)
25.09.2014 19:20 15,9 C 13,3 C 75 % 1020,4 hPa 0,0 l/m 0 min 0 min 11 W/m 10,5 km/h (2 Bft)
25.09.2014 19:22 15,8 C 13,3 C 75 % 1020,4 hPa 0,0 l/m 0 min 0 min 9 W/m 8,4 km/h (2 Bft)
25.09.2014 19:24 15,8 C 13,3 C 75 % 1020,5 hPa 0,0 l/m 0 min 0 min 8 W/m 8,4 km/h (2 Bft)
25.09.2014 19:26 15,8 C 13,3 C 75 % 1020,4 hPa 0,0 l/m 0 min 0 min 7 W/m 6,3 km/h (2 Bft)
25.09.2014 19:28 15,8 C 13,3 C 76 % 1020,5 hPa 0,0 l/m 0 min 0 min 6 W/m 8,4 km/h (2 Bft)
25.09.2014 19:30 15,7 C 13,3 C 76 % 1020,5 hPa 0,0 l/m 0 min 0 min 5 W/m 6,3 km/h (2 Bft)
25.09.2014 19:32 15,7 C 13,3 C 76 % 1020,4 hPa 0,0 l/m 0 min 0 min 0 W/m 8,4 km/h (2 Bft)
25.09.2014 19:34 15,7 C 13,3 C 76 % 1020,4 hPa 0,0 l/m 0 min 0 min 0 W/m 8,4 km/h (2 Bft)
25.09.2014 19:36 15,7 C 13,3 C 76 % 1020,3 hPa 0,0 l/m 0 min 0 min 0 W/m 12,6 km/h (3 Bft)
25.09.2014 19:38 15,7 C 13,3 C 76 % 1020,4 hPa 0,0 l/m 0 min 0 min 0 W/m 10,5 km/h (2 Bft)
25.09.2014 19:40 15,6 C 13,3 C 76 % 1020,3 hPa 0,0 l/m 0 min 0 min 0 W/m 6,3 km/h (2 Bft)
25.09.2014 19:42 15,6 C 13,3 C 76 % 1020,4 hPa 0,0 l/m 0 min 0 min 0 W/m 10,5 km/h (2 Bft)
25.09.2014 19:44 15,6 C 13,3 C 76 % 1020,6 hPa 0,0 l/m 0 min 0 min 0 W/m 6,3 km/h (2 Bft)
25.09.2014 19:46 15,5 C 13,3 C 77 % 1020,6 hPa 0,0 l/m 0 min 0 min 0 W/m 6,3 km/h (2 Bft)
25.09.2014 19:48 15,5 C 13,3 C 77 % 1020,6 hPa 0,0 l/m 0 min 0 min 0 W/m 6,3 km/h (2 Bft)
25.09.2014 19:50 15,5 C 13,3 C 77 % 1020,6 hPa 0,0 l/m 0 min 0 min 0 W/m 4,2 km/h (1 Bft)
25.09.2014 19:52 15,4 C 13,3 C 77 % 1020,6 hPa 0,0 l/m 0 min 0 min 0 W/m 8,4 km/h (2 Bft)
25.09.2014 19:54 15,4 C 13,3 C 77 % 1020,6 hPa 0,0 l/m 0 min 0 min 0 W/m 6,3 km/h (2 Bft)
25.09.2014 19:56 15,4 C 13,3 C 77 % 1020,6 hPa 0,0 l/m 0 min 0 min 0 W/m 6,3 km/h (2 Bft)
25.09.2014 19:58 15,4 C 13,3 C 77 % 1020,6 hPa 0,0 l/m 0 min 0 min 0 W/m 6,3 km/h (2 Bft)
25.09.2014 20:00 15,4 C 13,3 C 77 % 1020,6 hPa 0,0 l/m 0 min 0 min 0 W/m 6,3 km/h (2 Bft)
25.09.2014 20:02 15,3 C 13,3 C 78 % 1020,6 hPa 0,0 l/m 0 min 0 min 0 W/m 10,5 km/h (2 Bft)
25.09.2014 20:04 15,3 C 13,3 C 78 % 1020,7 hPa 0,0 l/m 0 min 0 min 0 W/m 8,4 km/h (2 Bft)
25.09.2014 20:06 15,3 C 13,3 C 78 % 1020,7 hPa 0,0 l/m 0 min 0 min 0 W/m 8,4 km/h (2 Bft)
25.09.2014 20:08 15,3 C 13,3 C 78 % 1020,7 hPa 0,0 l/m 0 min 0 min 0 W/m 6,3 km/h (2 Bft)
25.09.2014 20:10 15,2 C 12,8 C 78 % 1020,7 hPa 0,0 l/m 0 min 0 min 0 W/m 4,2 km/h (1 Bft)
25.09.2014 20:12 15,2 C 12,8 C 78 % 1020,8 hPa 0,0 l/m 0 min 0 min 0 W/m 6,3 km/h (2 Bft)
25.09.2014 20:14 15,2 C 12,8 C 78 % 1020,7 hPa 0,0 l/m 0 min 0 min 0 W/m 6,3 km/h (2 Bft)
25.09.2014 20:16 15,2 C 12,8 C 78 % 1020,8 hPa 0,0 l/m 0 min 0 min 0 W/m 6,3 km/h (2 Bft)
25.09.2014 20:18 15,2 C 12,8 C 78 % 1020,8 hPa 0,0 l/m 0 min 0 min 0 W/m 6,3 km/h (2 Bft)
25.09.2014 20:20 15,2 C 12,8 C 78 % 1020,8 hPa 0,0 l/m 0 min 0 min 0 W/m 8,4 km/h (2 Bft)
25.09.2014 20:22 15,1 C 12,8 C 78 % 1020,8 hPa 0,0 l/m 0 min 0 min 0 W/m 6,3 km/h (2 Bft)
25.09.2014 20:24 15,1 C 12,8 C 78 % 1020,8 hPa 0,0 l/m 0 min 0 min 0 W/m 8,4 km/h (2 Bft)
25.09.2014 20:26 15,1 C 12,8 C 79 % 1020,8 hPa 0,0 l/m 0 min 0 min 0 W/m 6,3 km/h (2 Bft)
25.09.2014 20:28 15,1 C 12,8 C 79 % 1020,8 hPa 0,0 l/m 0 min 0 min 0 W/m 6,3 km/h (2 Bft)
25.09.2014 20:30 15,1 C 12,8 C 79 % 1020,8 hPa 0,0 l/m 0 min 0 min 0 W/m 6,3 km/h (2 Bft)
25.09.2014 20:32 15,0 C 12,8 C 79 % 1020,8 hPa 0,0 l/m 0 min 0 min 0 W/m 6,3 km/h (2 Bft)
25.09.2014 20:34 15,0 C 12,8 C 79 % 1020,9 hPa 0,0 l/m 0 min 0 min 0 W/m 10,5 km/h (2 Bft)
25.09.2014 20:36 15,0 C 12,8 C 80 % 1020,8 hPa 0,0 l/m 0 min 0 min 0 W/m 6,3 km/h (2 Bft)
25.09.2014 20:38 14,9 C 12,8 C 80 % 1020,9 hPa 0,0 l/m 0 min 0 min 0 W/m 8,4 km/h (2 Bft)
25.09.2014 20:40 14,9 C 12,8 C 80 % 1020,9 hPa 0,0 l/m 0 min 0 min 0 W/m 6,3 km/h (2 Bft)
25.09.2014 20:42 14,9 C 12,8 C 80 % 1020,9 hPa 0,0 l/m 0 min 0 min 0 W/m 4,2 km/h (1 Bft)
25.09.2014 20:44 14,9 C 12,8 C 80 % 1020,9 hPa 0,0 l/m 0 min 0 min 0 W/m 8,4 km/h (2 Bft)
25.09.2014 20:46 14,9 C 12,8 C 80 % 1020,9 hPa 0,0 l/m 0 min 0 min 0 W/m 8,4 km/h (2 Bft)
25.09.2014 20:48 14,8 C 12,8 C 80 % 1020,9 hPa 0,0 l/m 0 min 0 min 0 W/m 6,3 km/h (2 Bft)
25.09.2014 20:50 14,8 C 12,8 C 80 % 1020,8 hPa 0,0 l/m 0 min 0 min 0 W/m 4,2 km/h (1 Bft)
25.09.2014 20:52 14,8 C 12,8 C 80 % 1020,9 hPa 0,0 l/m 0 min 0 min 0 W/m 6,3 km/h (2 Bft)
25.09.2014 20:54 14,8 C 12,8 C 80 % 1020,8 hPa 0,0 l/m 0 min 2 min 0 W/m 6,3 km/h (2 Bft)
25.09.2014 20:56 14,8 C 12,8 C 81 % 1020,8 hPa 0,0 l/m 0 min 2 min 0 W/m 4,2 km/h (1 Bft)
25.09.2014 20:58 14,7 C 12,8 C 81 % 1020,8 hPa 0,0 l/m 0 min 0 min 0 W/m 4,2 km/h (1 Bft)
25.09.2014 21:00 14,7 C 12,8 C 81 % 1020,9 hPa 0,0 l/m 0 min 0 min 0 W/m 6,3 km/h (2 Bft)
25.09.2014 21:02 14,7 C 12,2 C 81 % 1020,9 hPa 0,0 l/m 0 min 0 min 0 W/m 4,2 km/h (1 Bft)
25.09.2014 21:04 14,7 C 12,2 C 81 % 1021,0 hPa 0,0 l/m 0 min 0 min 0 W/m 4,2 km/h (1 Bft)
25.09.2014 21:06 14,7 C 12,2 C 81 % 1021,0 hPa 0,0 l/m 0 min 0 min 0 W/m 4,2 km/h (1 Bft)
25.09.2014 21:08 14,7 C 12,2 C 81 % 1021,1 hPa 0,0 l/m 0 min 0 min 0 W/m 4,2 km/h (1 Bft)
25.09.2014 21:10 14,6 C 12,2 C 81 % 1021,1 hPa 0,0 l/m 0 min 0 min 0 W/m 6,3 km/h (2 Bft)
25.09.2014 21:12 14,6 C 12,2 C 81 % 1021,1 hPa 0,0 l/m 0 min 0 min 0 W/m 4,2 km/h (1 Bft)
25.09.2014 21:14 14,6 C 12,8 C 81 % 1021,1 hPa 0,0 l/m 0 min 0 min 0 W/m 4,2 km/h (1 Bft)
25.09.2014 21:16 14,6 C 12,8 C 81 % 1021,1 hPa 0,0 l/m 0 min 0 min 0 W/m 8,4 km/h (2 Bft)
25.09.2014 21:18 14,6 C 12,8 C 82 % 1021,1 hPa 0,0 l/m 0 min 0 min 0 W/m 4,2 km/h (1 Bft)
25.09.2014 21:20 14,5 C 12,8 C 82 % 1021,1 hPa 0,0 l/m 0 min 0 min 0 W/m 8,4 km/h (2 Bft)
25.09.2014 21:22 14,5 C 12,8 C 82 % 1021,1 hPa 0,0 l/m 0 min 0 min 0 W/m 8,4 km/h (2 Bft)
25.09.2014 21:24 14,5 C 12,8 C 82 % 1021,1 hPa 0,0 l/m 0 min 0 min 0 W/m 8,4 km/h (2 Bft)
25.09.2014 21:26 14,4 C 12,8 C 82 % 1021,1 hPa 0,0 l/m 0 min 0 min 0 W/m 10,5 km/h (2 Bft)
25.09.2014 21:28 14,4 C 12,8 C 82 % 1021,1 hPa 0,0 l/m 0 min 0 min 0 W/m 10,5 km/h (2 Bft)
25.09.2014 21:30 14,4 C 12,8 C 82 % 1021,1 hPa 0,0 l/m 0 min 0 min 0 W/m 8,4 km/h (2 Bft)
25.09.2014 21:32 14,4 C 12,8 C 82 % 1021,0 hPa 0,0 l/m 0 min 0 min 0 W/m 8,4 km/h (2 Bft)
25.09.2014 21:34 14,4 C 12,8 C 82 % 1021,1 hPa 0,0 l/m 0 min 0 min 0 W/m 8,4 km/h (2 Bft)
25.09.2014 21:36 14,4 C 12,8 C 82 % 1021,1 hPa 0,0 l/m 0 min 0 min 0 W/m 10,5 km/h (2 Bft)
25.09.2014 21:38 14,3 C 12,8 C 82 % 1021,1 hPa 0,0 l/m 0 min 0 min 0 W/m 8,4 km/h (2 Bft)
25.09.2014 21:40 14,3 C 12,8 C 82 % 1021,1 hPa 0,0 l/m 0 min 0 min 0 W/m 6,3 km/h (2 Bft)
25.09.2014 21:42 14,3 C 12,8 C 82 % 1021,1 hPa 0,0 l/m 0 min 0 min 0 W/m 4,2 km/h (1 Bft)
25.09.2014 21:44 14,3 C 12,8 C 82 % 1021,1 hPa 0,0 l/m 0 min 0 min 0 W/m 10,5 km/h (2 Bft)
25.09.2014 21:46 14,3 C 12,8 C 82 % 1021,1 hPa 0,0 l/m 0 min 0 min 0 W/m 8,4 km/h (2 Bft)
25.09.2014 21:48 14,3 C 12,8 C 82 % 1021,2 hPa 0,0 l/m 0 min 0 min 0 W/m 8,4 km/h (2 Bft)
25.09.2014 21:50 14,2 C 12,8 C 82 % 1021,2 hPa 0,0 l/m 0 min 0 min 0 W/m 8,4 km/h (2 Bft)
25.09.2014 21:52 14,2 C 12,8 C 82 % 1021,2 hPa 0,0 l/m 0 min 0 min 0 W/m 6,3 km/h (2 Bft)
25.09.2014 21:54 14,2 C 12,8 C 82 % 1021,2 hPa 0,0 l/m 0 min 0 min 0 W/m 8,4 km/h (2 Bft)
25.09.2014 21:56 14,2 C 12,8 C 82 % 1021,2 hPa 0,0 l/m 0 min 0 min 0 W/m 6,3 km/h (2 Bft)
25.09.2014 21:58 14,2 C 12,8 C 82 % 1021,4 hPa 0,0 l/m 0 min 0 min 0 W/m 6,3 km/h (2 Bft)
25.09.2014 22:00 14,2 C 12,8 C 82 % 1021,5 hPa 0,0 l/m 0 min 0 min 0 W/m 8,4 km/h (2 Bft)
25.09.2014 22:02 14,2 C 12,8 C 82 % 1021,5 hPa 0,0 l/m 0 min 0 min 0 W/m 4,2 km/h (1 Bft)
25.09.2014 22:04 14,2 C 12,8 C 82 % 1021,5 hPa 0,0 l/m 0 min 0 min 0 W/m 4,2 km/h (1 Bft)
25.09.2014 22:06 14,2 C 12,8 C 82 % 1021,5 hPa 0,0 l/m 0 min 0 min 0 W/m 6,3 km/h (2 Bft)
25.09.2014 22:08 14,2 C 12,8 C 82 % 1021,5 hPa 0,0 l/m 0 min 0 min 0 W/m 6,3 km/h (2 Bft)
25.09.2014 22:10 14,2 C 12,8 C 82 % 1021,5 hPa 0,0 l/m 0 min 0 min 0 W/m 4,2 km/h (1 Bft)
25.09.2014 22:12 14,2 C 12,8 C 82 % 1021,5 hPa 0,0 l/m 0 min 0 min 0 W/m 6,3 km/h (2 Bft)
25.09.2014 22:14 14,2 C 12,8 C 82 % 1021,5 hPa 0,0 l/m 0 min 0 min 0 W/m 6,3 km/h (2 Bft)
25.09.2014 22:16 14,2 C 12,8 C 82 % 1021,6 hPa 0,0 l/m 0 min 0 min 0 W/m 4,2 km/h (1 Bft)
25.09.2014 22:18 14,2 C 12,8 C 82 % 1021,6 hPa 0,0 l/m 0 min 0 min 0 W/m 4,2 km/h (1 Bft)
25.09.2014 22:20 14,2 C 12,8 C 82 % 1021,6 hPa 0,0 l/m 0 min 0 min 0 W/m 4,2 km/h (1 Bft)
25.09.2014 22:22 14,2 C 12,8 C 83 % 1021,6 hPa 0,0 l/m 0 min 0 min 0 W/m 6,3 km/h (2 Bft)
25.09.2014 22:24 14,2 C 12,2 C 83 % 1021,6 hPa 0,0 l/m 0 min 0 min 0 W/m 10,5 km/h (2 Bft)
25.09.2014 22:26 14,2 C 12,8 C 83 % 1021,6 hPa 0,0 l/m 0 min 0 min 0 W/m 8,4 km/h (2 Bft)
25.09.2014 22:28 14,2 C 12,8 C 83 % 1021,6 hPa 0,0 l/m 0 min 0 min 0 W/m 6,3 km/h (2 Bft)
25.09.2014 22:30 14,2 C 12,8 C 83 % 1021,6 hPa 0,0 l/m 0 min 0 min 0 W/m 6,3 km/h (2 Bft)
25.09.2014 22:32 14,2 C 12,8 C 83 % 1021,6 hPa 0,0 l/m 0 min 0 min 0 W/m 4,2 km/h (1 Bft)
25.09.2014 22:34 14,2 C 12,2 C 83 % 1021,6 hPa 0,0 l/m 0 min 0 min 0 W/m 4,2 km/h (1 Bft)
25.09.2014 22:36 14,2 C 12,2 C 83 % 1021,6 hPa 0,0 l/m 0 min 0 min 0 W/m 10,5 km/h (2 Bft)
25.09.2014 22:38 14,2 C 12,8 C 83 % 1021,6 hPa 0,0 l/m 0 min 0 min 0 W/m 8,4 km/h (2 Bft)
25.09.2014 22:40 14,2 C 12,8 C 83 % 1021,4 hPa 0,0 l/m 0 min 0 min 0 W/m 8,4 km/h (2 Bft)
25.09.2014 22:42 14,2 C 12,8 C 83 % 1021,5 hPa 0,0 l/m 0 min 0 min 0 W/m 8,4 km/h (2 Bft)
25.09.2014 22:44 14,2 C 12,8 C 83 % 1021,5 hPa 0,0 l/m 0 min 0 min 0 W/m 8,4 km/h (2 Bft)
25.09.2014 22:46 14,2 C 12,8 C 83 % 1021,6 hPa 0,0 l/m 0 min 0 min 0 W/m 10,5 km/h (2 Bft)
25.09.2014 22:48 14,2 C 12,8 C 83 % 1021,6 hPa 0,0 l/m 0 min 0 min 0 W/m 8,4 km/h (2 Bft)
25.09.2014 22:50 14,2 C 12,8 C 83 % 1021,5 hPa 0,0 l/m 0 min 0 min 0 W/m 10,5 km/h (2 Bft)
25.09.2014 22:52 14,2 C 12,8 C 83 % 1021,5 hPa 0,0 l/m 0 min 0 min 0 W/m 10,5 km/h (2 Bft)
25.09.2014 22:54 14,1 C 12,8 C 83 % 1021,5 hPa 0,0 l/m 0 min 0 min 0 W/m 10,5 km/h (2 Bft)
25.09.2014 22:56 14,1 C 12,8 C 83 % 1021,5 hPa 0,0 l/m 0 min 0 min 0 W/m 12,6 km/h (3 Bft)
25.09.2014 22:58 14,1 C 12,8 C 83 % 1021,4 hPa 0,0 l/m 0 min 0 min 0 W/m 10,5 km/h (2 Bft)
25.09.2014 23:00 14,1 C 12,8 C 83 % 1021,5 hPa 0,0 l/m 0 min 0 min 0 W/m 10,5 km/h (2 Bft)
25.09.2014 23:02 14,1 C 12,8 C 83 % 1021,4 hPa 0,0 l/m 0 min 0 min 0 W/m 12,6 km/h (3 Bft)
25.09.2014 23:04 14,1 C 12,8 C 83 % 1021,4 hPa 0,0 l/m 0 min 0 min 0 W/m 10,5 km/h (2 Bft)
25.09.2014 23:06 14,0 C 12,8 C 83 % 1021,3 hPa 0,0 l/m 0 min 0 min 0 W/m 14,6 km/h (3 Bft)
25.09.2014 23:08 14,0 C 12,8 C 83 % 1021,3 hPa 0,0 l/m 0 min 0 min 0 W/m 12,6 km/h (3 Bft)
25.09.2014 23:10 14,0 C 12,2 C 83 % 1021,4 hPa 0,0 l/m 0 min 0 min 0 W/m 14,6 km/h (3 Bft)
25.09.2014 23:12 14,0 C 12,2 C 83 % 1021,4 hPa 0,0 l/m 0 min 0 min 0 W/m 14,6 km/h (3 Bft)
25.09.2014 23:14 14,0 C 12,2 C 83 % 1021,4 hPa 0,0 l/m 0 min 0 min 0 W/m 10,5 km/h (2 Bft)
25.09.2014 23:16 14,0 C 12,2 C 83 % 1021,4 hPa 0,0 l/m 0 min 0 min 0 W/m 12,6 km/h (3 Bft)
25.09.2014 23:18 14,0 C 12,2 C 83 % 1021,4 hPa 0,0 l/m 0 min 0 min 0 W/m 14,6 km/h (3 Bft)
25.09.2014 23:20 13,9 C 12,2 C 83 % 1021,5 hPa 0,0 l/m 0 min 0 min 0 W/m 10,5 km/h (2 Bft)
25.09.2014 23:22 13,9 C 12,2 C 82 % 1021,5 hPa 0,0 l/m 0 min 0 min 0 W/m 12,6 km/h (3 Bft)
25.09.2014 23:24 13,9 C 12,2 C 82 % 1021,5 hPa 0,0 l/m 0 min 0 min 0 W/m 10,5 km/h (2 Bft)
25.09.2014 23:26 13,9 C 12,2 C 82 % 1021,5 hPa 0,0 l/m 0 min 0 min 0 W/m 14,6 km/h (3 Bft)
25.09.2014 23:28 13,9 C 12,2 C 82 % 1021,5 hPa 0,0 l/m 0 min 0 min 0 W/m 12,6 km/h (3 Bft)
25.09.2014 23:30 13,9 C 12,2 C 82 % 1021,4 hPa 0,0 l/m 0 min 0 min 0 W/m 12,6 km/h (3 Bft)
25.09.2014 23:32 13,9 C 12,2 C 82 % 1021,5 hPa 0,0 l/m 0 min 0 min 0 W/m 10,5 km/h (2 Bft)
25.09.2014 23:34 13,9 C 12,2 C 82 % 1021,6 hPa 0,0 l/m 0 min 0 min 0 W/m 14,6 km/h (3 Bft)
25.09.2014 23:36 13,9 C 12,2 C 82 % 1021,7 hPa 0,0 l/m 0 min 0 min 0 W/m 6,3 km/h (2 Bft)
25.09.2014 23:38 13,8 C 12,2 C 82 % 1021,7 hPa 0,0 l/m 0 min 0 min 0 W/m 8,4 km/h (2 Bft)
25.09.2014 23:40 13,8 C 12,2 C 82 % 1021,7 hPa 0,0 l/m 0 min 0 min 0 W/m 12,6 km/h (3 Bft)
25.09.2014 23:42 13,8 C 12,2 C 82 % 1021,7 hPa 0,0 l/m 0 min 0 min 0 W/m 10,5 km/h (2 Bft)
25.09.2014 23:44 13,8 C 12,2 C 82 % 1021,8 hPa 0,0 l/m 0 min 0 min 0 W/m 12,6 km/h (3 Bft)
25.09.2014 23:46 13,8 C 12,2 C 82 % 1021,8 hPa 0,0 l/m 0 min 0 min 0 W/m 10,5 km/h (2 Bft)
25.09.2014 23:48 13,8 C 12,2 C 82 % 1021,8 hPa 0,0 l/m 0 min 0 min 0 W/m 10,5 km/h (2 Bft)
25.09.2014 23:50 13,8 C 12,2 C 82 % 1021,8 hPa 0,0 l/m 0 min 0 min 0 W/m 12,6 km/h (3 Bft)
25.09.2014 23:52 13,8 C 12,2 C 83 % 1021,9 hPa 0,0 l/m 0 min 0 min 0 W/m 10,5 km/h (2 Bft)
25.09.2014 23:54 13,8 C 12,2 C 83 % 1021,8 hPa 0,0 l/m 0 min 0 min 0 W/m 12,6 km/h (3 Bft)
25.09.2014 23:56 13,8 C 12,2 C 83 % 1021,8 hPa 0,0 l/m 0 min 0 min 0 W/m 10,5 km/h (2 Bft)
25.09.2014 23:58 13,8 C 12,2 C 83 % 1021,8 hPa 0,0 l/m 0 min 0 min 0 W/m 8,4 km/h (2 Bft)
_ Min-Zeit 05:28 04:48 16:26 00:12 - - - - 02:22
Minimum _ 9,6 C 8,3 C 64 % 1012,3 hPa - - - - 4,2 km/h (1 Bft)
_ Max-Zeit 15:26 14:40 08:18 23:52 08:24 08:48 08:14 13:14 16:56
Maximum _ 19,0 C 17,2 C 99 % 1021,9 hPa 0,2 l/m 2 min 2 min 761 W/m 37,7 km/h
W-SW (5 Bft)
Durchschnitt _ 13,7 C 12,3 C 87 % 1018,1 hPa #0,4 l/m #6:58 h #14 min. 257 W/m 12,5 km/h (3 Bft)
© 2014 W. Hausmann